<?xml version="1.0" encoding="UTF-8" standalone="no" ?>
<gpx xmlns="http://www.topografix.com/GPX/1/1" xmlns:xsi="http://www.w3.org/2001/XMLSchema-instance" xsi:schemaLocation="http://www.topografix.com/GPX/1/1 http://www.topografix.com/GPX/1/1/gpx.xsd" version="1.1" creator="VisuGPX - https://www.visugpx.com">
  <metadata>
    <name>puy violent</name>
    <desc><![CDATA[rando du puy violent]]></desc>
  </metadata>
  <trk>
    <name><![CDATA[ACTIVE LOG]]></name>
    <trkseg>
      <trkpt lat="45.13639" lon="2.56877">
        <ele>1367.1320800781</ele>
        <time>2011-06-15T08:29:33Z</time>
      </trkpt>
      <trkpt lat="45.13639" lon="2.56876">
        <ele>1366.6513671875</ele>
        <time>2011-06-15T08:30:15Z</time>
      </trkpt>
      <trkpt lat="45.13636" lon="2.56875">
        <ele>1365.6901855469</ele>
        <time>2011-06-15T08:32:18Z</time>
      </trkpt>
      <trkpt lat="45.13641" lon="2.56884">
        <ele>1366.6513671875</ele>
        <time>2011-06-15T08:32:31Z</time>
      </trkpt>
      <trkpt lat="45.13643" lon="2.56907">
        <ele>1367.6125488281</ele>
        <time>2011-06-15T08:32:52Z</time>
      </trkpt>
      <trkpt lat="45.13641" lon="2.56923">
        <ele>1369.5354003906</ele>
        <time>2011-06-15T08:33:13Z</time>
      </trkpt>
      <trkpt lat="45.13636" lon="2.56928">
        <ele>1370.4965820312</ele>
        <time>2011-06-15T08:33:38Z</time>
      </trkpt>
      <trkpt lat="45.13634" lon="2.56935">
        <ele>1371.4577636719</ele>
        <time>2011-06-15T08:34:06Z</time>
      </trkpt>
      <trkpt lat="45.13626" lon="2.56951">
        <ele>1374.3420410156</ele>
        <time>2011-06-15T08:34:28Z</time>
      </trkpt>
      <trkpt lat="45.13617" lon="2.5697">
        <ele>1376.2646484375</ele>
        <time>2011-06-15T08:34:50Z</time>
      </trkpt>
      <trkpt lat="45.13609" lon="2.56999">
        <ele>1378.1872558594</ele>
        <time>2011-06-15T08:35:17Z</time>
      </trkpt>
      <trkpt lat="45.13607" lon="2.57018">
        <ele>1380.5905761719</ele>
        <time>2011-06-15T08:35:35Z</time>
      </trkpt>
      <trkpt lat="45.13601" lon="2.57038">
        <ele>1382.5131835938</ele>
        <time>2011-06-15T08:35:56Z</time>
      </trkpt>
      <trkpt lat="45.13595" lon="2.57061">
        <ele>1383.955078125</ele>
        <time>2011-06-15T08:36:20Z</time>
      </trkpt>
      <trkpt lat="45.13586" lon="2.5708">
        <ele>1384.9165039062</ele>
        <time>2011-06-15T08:36:43Z</time>
      </trkpt>
      <trkpt lat="45.13579" lon="2.57105">
        <ele>1386.8388671875</ele>
        <time>2011-06-15T08:37:07Z</time>
      </trkpt>
      <trkpt lat="45.13576" lon="2.57117">
        <ele>1388.28125</ele>
        <time>2011-06-15T08:37:26Z</time>
      </trkpt>
      <trkpt lat="45.13569" lon="2.57139">
        <ele>1390.6843261719</ele>
        <time>2011-06-15T08:37:47Z</time>
      </trkpt>
      <trkpt lat="45.13566" lon="2.57155">
        <ele>1392.6071777344</ele>
        <time>2011-06-15T08:38:05Z</time>
      </trkpt>
      <trkpt lat="45.13562" lon="2.57173">
        <ele>1394.5295410156</ele>
        <time>2011-06-15T08:38:30Z</time>
      </trkpt>
      <trkpt lat="45.13558" lon="2.57193">
        <ele>1396.4523925781</ele>
        <time>2011-06-15T08:38:52Z</time>
      </trkpt>
      <trkpt lat="45.13547" lon="2.57218">
        <ele>1399.3361816406</ele>
        <time>2011-06-15T08:39:23Z</time>
      </trkpt>
      <trkpt lat="45.13538" lon="2.57224">
        <ele>1400.2976074219</ele>
        <time>2011-06-15T08:39:41Z</time>
      </trkpt>
      <trkpt lat="45.13522" lon="2.57232">
        <ele>1402.7006835938</ele>
        <time>2011-06-15T08:40:02Z</time>
      </trkpt>
      <trkpt lat="45.13508" lon="2.57241">
        <ele>1406.0654296875</ele>
        <time>2011-06-15T08:40:27Z</time>
      </trkpt>
      <trkpt lat="45.13492" lon="2.57247">
        <ele>1408.46875</ele>
        <time>2011-06-15T08:40:50Z</time>
      </trkpt>
      <trkpt lat="45.13488" lon="2.57252">
        <ele>1409.4301757812</ele>
        <time>2011-06-15T08:41:16Z</time>
      </trkpt>
      <trkpt lat="45.13476" lon="2.57274">
        <ele>1411.3527832031</ele>
        <time>2011-06-15T08:41:41Z</time>
      </trkpt>
      <trkpt lat="45.13467" lon="2.57298">
        <ele>1412.7946777344</ele>
        <time>2011-06-15T08:42:01Z</time>
      </trkpt>
      <trkpt lat="45.1346" lon="2.57322">
        <ele>1414.2365722656</ele>
        <time>2011-06-15T08:42:20Z</time>
      </trkpt>
      <trkpt lat="45.13451" lon="2.57343">
        <ele>1415.1979980469</ele>
        <time>2011-06-15T08:42:38Z</time>
      </trkpt>
      <trkpt lat="45.13438" lon="2.57365">
        <ele>1415.1979980469</ele>
        <time>2011-06-15T08:42:57Z</time>
      </trkpt>
      <trkpt lat="45.13427" lon="2.57388">
        <ele>1416.1591796875</ele>
        <time>2011-06-15T08:43:19Z</time>
      </trkpt>
      <trkpt lat="45.1342" lon="2.57399">
        <ele>1417.1206054688</ele>
        <time>2011-06-15T08:43:37Z</time>
      </trkpt>
      <trkpt lat="45.1341" lon="2.57413">
        <ele>1417.6010742188</ele>
        <time>2011-06-15T08:43:51Z</time>
      </trkpt>
      <trkpt lat="45.13398" lon="2.57437">
        <ele>1417.6010742188</ele>
        <time>2011-06-15T08:44:12Z</time>
      </trkpt>
      <trkpt lat="45.13386" lon="2.57463">
        <ele>1419.0432128906</ele>
        <time>2011-06-15T08:44:36Z</time>
      </trkpt>
      <trkpt lat="45.13376" lon="2.57481">
        <ele>1420.4853515625</ele>
        <time>2011-06-15T08:44:54Z</time>
      </trkpt>
      <trkpt lat="45.13372" lon="2.57496">
        <ele>1421.4465332031</ele>
        <time>2011-06-15T08:45:10Z</time>
      </trkpt>
      <trkpt lat="45.1336" lon="2.57521">
        <ele>1423.8498535156</ele>
        <time>2011-06-15T08:45:37Z</time>
      </trkpt>
      <trkpt lat="45.13344" lon="2.57546">
        <ele>1425.2917480469</ele>
        <time>2011-06-15T08:46:06Z</time>
      </trkpt>
      <trkpt lat="45.13337" lon="2.57559">
        <ele>1425.7724609375</ele>
        <time>2011-06-15T08:46:22Z</time>
      </trkpt>
      <trkpt lat="45.13329" lon="2.57574">
        <ele>1427.2145996094</ele>
        <time>2011-06-15T08:46:44Z</time>
      </trkpt>
      <trkpt lat="45.13323" lon="2.57588">
        <ele>1428.6564941406</ele>
        <time>2011-06-15T08:47:04Z</time>
      </trkpt>
      <trkpt lat="45.13317" lon="2.57603">
        <ele>1430.5791015625</ele>
        <time>2011-06-15T08:47:24Z</time>
      </trkpt>
      <trkpt lat="45.13308" lon="2.57616">
        <ele>1432.0209960938</ele>
        <time>2011-06-15T08:47:41Z</time>
      </trkpt>
      <trkpt lat="45.13302" lon="2.57628">
        <ele>1433.9436035156</ele>
        <time>2011-06-15T08:47:57Z</time>
      </trkpt>
      <trkpt lat="45.13299" lon="2.57631">
        <ele>1433.462890625</ele>
        <time>2011-06-15T08:48:00Z</time>
      </trkpt>
      <trkpt lat="45.13297" lon="2.57631">
        <ele>1433.9436035156</ele>
        <time>2011-06-15T08:48:02Z</time>
      </trkpt>
      <trkpt lat="45.1329" lon="2.5764">
        <ele>1434.9050292969</ele>
        <time>2011-06-15T08:48:14Z</time>
      </trkpt>
      <trkpt lat="45.13285" lon="2.57658">
        <ele>1435.8662109375</ele>
        <time>2011-06-15T08:48:27Z</time>
      </trkpt>
      <trkpt lat="45.13286" lon="2.57659">
        <ele>1435.8662109375</ele>
        <time>2011-06-15T08:48:28Z</time>
      </trkpt>
      <trkpt lat="45.13281" lon="2.57669">
        <ele>1437.3083496094</ele>
        <time>2011-06-15T08:48:42Z</time>
      </trkpt>
      <trkpt lat="45.13279" lon="2.57686">
        <ele>1438.2697753906</ele>
        <time>2011-06-15T08:48:59Z</time>
      </trkpt>
      <trkpt lat="45.13275" lon="2.57704">
        <ele>1438.7504882812</ele>
        <time>2011-06-15T08:49:15Z</time>
      </trkpt>
      <trkpt lat="45.13274" lon="2.57713">
        <ele>1439.2309570312</ele>
        <time>2011-06-15T08:49:23Z</time>
      </trkpt>
      <trkpt lat="45.13269" lon="2.57729">
        <ele>1440.6728515625</ele>
        <time>2011-06-15T08:49:39Z</time>
      </trkpt>
      <trkpt lat="45.13264" lon="2.57745">
        <ele>1442.1149902344</ele>
        <time>2011-06-15T08:49:57Z</time>
      </trkpt>
      <trkpt lat="45.13259" lon="2.57757">
        <ele>1443.5568847656</ele>
        <time>2011-06-15T08:50:13Z</time>
      </trkpt>
      <trkpt lat="45.13249" lon="2.57771">
        <ele>1444.9987792969</ele>
        <time>2011-06-15T08:50:27Z</time>
      </trkpt>
      <trkpt lat="45.13245" lon="2.57778">
        <ele>1445.4794921875</ele>
        <time>2011-06-15T08:50:45Z</time>
      </trkpt>
      <trkpt lat="45.13237" lon="2.57786">
        <ele>1446.4409179688</ele>
        <time>2011-06-15T08:51:03Z</time>
      </trkpt>
      <trkpt lat="45.13228" lon="2.57808">
        <ele>1448.36328125</ele>
        <time>2011-06-15T08:51:26Z</time>
      </trkpt>
      <trkpt lat="45.13215" lon="2.57823">
        <ele>1449.8054199219</ele>
        <time>2011-06-15T08:51:46Z</time>
      </trkpt>
      <trkpt lat="45.13208" lon="2.57832">
        <ele>1450.7666015625</ele>
        <time>2011-06-15T08:51:58Z</time>
      </trkpt>
      <trkpt lat="45.13196" lon="2.5785">
        <ele>1452.2087402344</ele>
        <time>2011-06-15T08:52:17Z</time>
      </trkpt>
      <trkpt lat="45.13191" lon="2.57854">
        <ele>1452.689453125</ele>
        <time>2011-06-15T08:52:34Z</time>
      </trkpt>
      <trkpt lat="45.13187" lon="2.57869">
        <ele>1454.6120605469</ele>
        <time>2011-06-15T08:52:53Z</time>
      </trkpt>
      <trkpt lat="45.13186" lon="2.57886">
        <ele>1456.5346679688</ele>
        <time>2011-06-15T08:53:13Z</time>
      </trkpt>
      <trkpt lat="45.13184" lon="2.57901">
        <ele>1457.9768066406</ele>
        <time>2011-06-15T08:53:28Z</time>
      </trkpt>
      <trkpt lat="45.13184" lon="2.57904">
        <ele>1458.4572753906</ele>
        <time>2011-06-15T08:53:46Z</time>
      </trkpt>
      <trkpt lat="45.13179" lon="2.57921">
        <ele>1459.4187011719</ele>
        <time>2011-06-15T08:54:04Z</time>
      </trkpt>
      <trkpt lat="45.13175" lon="2.57938">
        <ele>1460.8605957031</ele>
        <time>2011-06-15T08:54:21Z</time>
      </trkpt>
      <trkpt lat="45.13171" lon="2.57944">
        <ele>1461.3413085938</ele>
        <time>2011-06-15T08:54:28Z</time>
      </trkpt>
      <trkpt lat="45.13168" lon="2.57952">
        <ele>1461.3413085938</ele>
        <time>2011-06-15T08:54:33Z</time>
      </trkpt>
      <trkpt lat="45.13162" lon="2.57972">
        <ele>1462.783203125</ele>
        <time>2011-06-15T08:54:50Z</time>
      </trkpt>
      <trkpt lat="45.13159" lon="2.57979">
        <ele>1463.2639160156</ele>
        <time>2011-06-15T08:55:07Z</time>
      </trkpt>
      <trkpt lat="45.13155" lon="2.57986">
        <ele>1463.7443847656</ele>
        <time>2011-06-15T08:55:19Z</time>
      </trkpt>
      <trkpt lat="45.13152" lon="2.57992">
        <ele>1464.7058105469</ele>
        <time>2011-06-15T08:55:36Z</time>
      </trkpt>
      <trkpt lat="45.13147" lon="2.58001">
        <ele>1465.6672363281</ele>
        <time>2011-06-15T08:56:02Z</time>
      </trkpt>
      <trkpt lat="45.13138" lon="2.58013">
        <ele>1466.6284179688</ele>
        <time>2011-06-15T08:56:28Z</time>
      </trkpt>
      <trkpt lat="45.13132" lon="2.58024">
        <ele>1468.0705566406</ele>
        <time>2011-06-15T08:56:45Z</time>
      </trkpt>
      <trkpt lat="45.13129" lon="2.58034">
        <ele>1468.5512695312</ele>
        <time>2011-06-15T08:57:05Z</time>
      </trkpt>
      <trkpt lat="45.13124" lon="2.58051">
        <ele>1469.9931640625</ele>
        <time>2011-06-15T08:57:27Z</time>
      </trkpt>
      <trkpt lat="45.13121" lon="2.58066">
        <ele>1471.4350585938</ele>
        <time>2011-06-15T08:57:40Z</time>
      </trkpt>
      <trkpt lat="45.13116" lon="2.58076">
        <ele>1471.9157714844</ele>
        <time>2011-06-15T08:57:51Z</time>
      </trkpt>
      <trkpt lat="45.13113" lon="2.58087">
        <ele>1472.8771972656</ele>
        <time>2011-06-15T08:58:03Z</time>
      </trkpt>
      <trkpt lat="45.13106" lon="2.58101">
        <ele>1474.3190917969</ele>
        <time>2011-06-15T08:58:21Z</time>
      </trkpt>
      <trkpt lat="45.13098" lon="2.5812">
        <ele>1475.2802734375</ele>
        <time>2011-06-15T08:58:42Z</time>
      </trkpt>
      <trkpt lat="45.13098" lon="2.58125">
        <ele>1476.2416992188</ele>
        <time>2011-06-15T08:58:55Z</time>
      </trkpt>
      <trkpt lat="45.13095" lon="2.58143">
        <ele>1477.68359375</ele>
        <time>2011-06-15T08:59:46Z</time>
      </trkpt>
      <trkpt lat="45.13091" lon="2.58161">
        <ele>1480.0869140625</ele>
        <time>2011-06-15T09:00:05Z</time>
      </trkpt>
      <trkpt lat="45.13083" lon="2.58178">
        <ele>1480.5676269531</ele>
        <time>2011-06-15T09:00:23Z</time>
      </trkpt>
      <trkpt lat="45.13082" lon="2.58183">
        <ele>1481.5288085938</ele>
        <time>2011-06-15T09:00:27Z</time>
      </trkpt>
      <trkpt lat="45.13079" lon="2.58193">
        <ele>1482.490234375</ele>
        <time>2011-06-15T09:00:45Z</time>
      </trkpt>
      <trkpt lat="45.13076" lon="2.58206">
        <ele>1484.4130859375</ele>
        <time>2011-06-15T09:01:06Z</time>
      </trkpt>
      <trkpt lat="45.13071" lon="2.58218">
        <ele>1485.8549804688</ele>
        <time>2011-06-15T09:01:22Z</time>
      </trkpt>
      <trkpt lat="45.13071" lon="2.58229">
        <ele>1487.7775878906</ele>
        <time>2011-06-15T09:01:36Z</time>
      </trkpt>
      <trkpt lat="45.13067" lon="2.58244">
        <ele>1488.7390136719</ele>
        <time>2011-06-15T09:01:51Z</time>
      </trkpt>
      <trkpt lat="45.13063" lon="2.58257">
        <ele>1490.1809082031</ele>
        <time>2011-06-15T09:02:06Z</time>
      </trkpt>
      <trkpt lat="45.13065" lon="2.5828">
        <ele>1491.6228027344</ele>
        <time>2011-06-15T09:02:26Z</time>
      </trkpt>
      <trkpt lat="45.13061" lon="2.58294">
        <ele>1492.103515625</ele>
        <time>2011-06-15T09:02:39Z</time>
      </trkpt>
      <trkpt lat="45.13059" lon="2.5831">
        <ele>1492.5842285156</ele>
        <time>2011-06-15T09:02:54Z</time>
      </trkpt>
      <trkpt lat="45.13061" lon="2.5832">
        <ele>1494.0261230469</ele>
        <time>2011-06-15T09:03:22Z</time>
      </trkpt>
      <trkpt lat="45.1306" lon="2.58338">
        <ele>1494.9873046875</ele>
        <time>2011-06-15T09:03:40Z</time>
      </trkpt>
      <trkpt lat="45.13057" lon="2.58355">
        <ele>1496.9099121094</ele>
        <time>2011-06-15T09:03:55Z</time>
      </trkpt>
      <trkpt lat="45.13056" lon="2.58368">
        <ele>1497.390625</ele>
        <time>2011-06-15T09:04:13Z</time>
      </trkpt>
      <trkpt lat="45.13056" lon="2.58382">
        <ele>1498.3518066406</ele>
        <time>2011-06-15T09:04:28Z</time>
      </trkpt>
      <trkpt lat="45.13056" lon="2.58399">
        <ele>1499.7939453125</ele>
        <time>2011-06-15T09:04:44Z</time>
      </trkpt>
      <trkpt lat="45.13056" lon="2.584">
        <ele>1499.7939453125</ele>
        <time>2011-06-15T09:04:45Z</time>
      </trkpt>
      <trkpt lat="45.13055" lon="2.58414">
        <ele>1500.7553710938</ele>
        <time>2011-06-15T09:04:57Z</time>
      </trkpt>
      <trkpt lat="45.13052" lon="2.58428">
        <ele>1502.197265625</ele>
        <time>2011-06-15T09:05:12Z</time>
      </trkpt>
      <trkpt lat="45.13048" lon="2.58439">
        <ele>1503.1586914062</ele>
        <time>2011-06-15T09:05:26Z</time>
      </trkpt>
      <trkpt lat="45.13049" lon="2.5845">
        <ele>1504.1201171875</ele>
        <time>2011-06-15T09:05:40Z</time>
      </trkpt>
      <trkpt lat="45.13047" lon="2.58464">
        <ele>1505.5620117188</ele>
        <time>2011-06-15T09:05:58Z</time>
      </trkpt>
      <trkpt lat="45.13046" lon="2.58476">
        <ele>1507.00390625</ele>
        <time>2011-06-15T09:06:16Z</time>
      </trkpt>
      <trkpt lat="45.13045" lon="2.58483">
        <ele>1508.4458007812</ele>
        <time>2011-06-15T09:06:45Z</time>
      </trkpt>
      <trkpt lat="45.13039" lon="2.58506">
        <ele>1509.4072265625</ele>
        <time>2011-06-15T09:07:04Z</time>
      </trkpt>
      <trkpt lat="45.13035" lon="2.58519">
        <ele>1510.3684082031</ele>
        <time>2011-06-15T09:07:19Z</time>
      </trkpt>
      <trkpt lat="45.13032" lon="2.58532">
        <ele>1511.3298339844</ele>
        <time>2011-06-15T09:07:33Z</time>
      </trkpt>
      <trkpt lat="45.13029" lon="2.58546">
        <ele>1513.2524414062</ele>
        <time>2011-06-15T09:07:50Z</time>
      </trkpt>
      <trkpt lat="45.13026" lon="2.58561">
        <ele>1514.6943359375</ele>
        <time>2011-06-15T09:08:05Z</time>
      </trkpt>
      <trkpt lat="45.13026" lon="2.58571">
        <ele>1516.1364746094</ele>
        <time>2011-06-15T09:08:26Z</time>
      </trkpt>
      <trkpt lat="45.13023" lon="2.58583">
        <ele>1517.5783691406</ele>
        <time>2011-06-15T09:08:40Z</time>
      </trkpt>
      <trkpt lat="45.13022" lon="2.58599">
        <ele>1519.0205078125</ele>
        <time>2011-06-15T09:08:59Z</time>
      </trkpt>
      <trkpt lat="45.13022" lon="2.58605">
        <ele>1519.9816894531</ele>
        <time>2011-06-15T09:09:19Z</time>
      </trkpt>
      <trkpt lat="45.13023" lon="2.58617">
        <ele>1520.9431152344</ele>
        <time>2011-06-15T09:09:33Z</time>
      </trkpt>
      <trkpt lat="45.13024" lon="2.58621">
        <ele>1521.904296875</ele>
        <time>2011-06-15T09:09:51Z</time>
      </trkpt>
      <trkpt lat="45.13022" lon="2.58636">
        <ele>1524.3076171875</ele>
        <time>2011-06-15T09:10:09Z</time>
      </trkpt>
      <trkpt lat="45.13019" lon="2.58645">
        <ele>1525.2687988281</ele>
        <time>2011-06-15T09:10:26Z</time>
      </trkpt>
      <trkpt lat="45.13016" lon="2.58651">
        <ele>1526.7109375</ele>
        <time>2011-06-15T09:10:33Z</time>
      </trkpt>
      <trkpt lat="45.13015" lon="2.5866">
        <ele>1528.1528320312</ele>
        <time>2011-06-15T09:10:47Z</time>
      </trkpt>
      <trkpt lat="45.1301" lon="2.58671">
        <ele>1530.5561523438</ele>
        <time>2011-06-15T09:11:12Z</time>
      </trkpt>
      <trkpt lat="45.13006" lon="2.58689">
        <ele>1533.4401855469</ele>
        <time>2011-06-15T09:11:33Z</time>
      </trkpt>
      <trkpt lat="45.13002" lon="2.58697">
        <ele>1534.4016113281</ele>
        <time>2011-06-15T09:12:00Z</time>
      </trkpt>
      <trkpt lat="45.12997" lon="2.58707">
        <ele>1536.32421875</ele>
        <time>2011-06-15T09:12:15Z</time>
      </trkpt>
      <trkpt lat="45.12984" lon="2.58717">
        <ele>1537.2854003906</ele>
        <time>2011-06-15T09:12:35Z</time>
      </trkpt>
      <trkpt lat="45.12971" lon="2.58726">
        <ele>1538.2468261719</ele>
        <time>2011-06-15T09:12:56Z</time>
      </trkpt>
      <trkpt lat="45.12963" lon="2.58736">
        <ele>1539.2080078125</ele>
        <time>2011-06-15T09:13:09Z</time>
      </trkpt>
      <trkpt lat="45.12954" lon="2.58742">
        <ele>1540.6499023438</ele>
        <time>2011-06-15T09:13:29Z</time>
      </trkpt>
      <trkpt lat="45.12947" lon="2.58753">
        <ele>1542.0920410156</ele>
        <time>2011-06-15T09:13:50Z</time>
      </trkpt>
      <trkpt lat="45.12941" lon="2.58759">
        <ele>1542.5727539062</ele>
        <time>2011-06-15T09:14:00Z</time>
      </trkpt>
      <trkpt lat="45.12935" lon="2.58776">
        <ele>1544.0146484375</ele>
        <time>2011-06-15T09:14:16Z</time>
      </trkpt>
      <trkpt lat="45.12928" lon="2.58786">
        <ele>1545.4565429688</ele>
        <time>2011-06-15T09:14:34Z</time>
      </trkpt>
      <trkpt lat="45.12926" lon="2.58799">
        <ele>1547.3791503906</ele>
        <time>2011-06-15T09:14:53Z</time>
      </trkpt>
      <trkpt lat="45.12922" lon="2.58816">
        <ele>1547.8598632812</ele>
        <time>2011-06-15T09:15:10Z</time>
      </trkpt>
      <trkpt lat="45.12922" lon="2.58823">
        <ele>1547.8598632812</ele>
        <time>2011-06-15T09:15:29Z</time>
      </trkpt>
      <trkpt lat="45.12922" lon="2.58825">
        <ele>1547.8598632812</ele>
        <time>2011-06-15T09:15:31Z</time>
      </trkpt>
      <trkpt lat="45.12919" lon="2.58842">
        <ele>1547.3791503906</ele>
        <time>2011-06-15T09:15:48Z</time>
      </trkpt>
      <trkpt lat="45.12919" lon="2.58858">
        <ele>1546.41796875</ele>
        <time>2011-06-15T09:16:03Z</time>
      </trkpt>
      <trkpt lat="45.12919" lon="2.58866">
        <ele>1545.9372558594</ele>
        <time>2011-06-15T09:16:13Z</time>
      </trkpt>
      <trkpt lat="45.12917" lon="2.58887">
        <ele>1544.9758300781</ele>
        <time>2011-06-15T09:16:29Z</time>
      </trkpt>
      <trkpt lat="45.12917" lon="2.58903">
        <ele>1544.4951171875</ele>
        <time>2011-06-15T09:16:44Z</time>
      </trkpt>
      <trkpt lat="45.12914" lon="2.58923">
        <ele>1543.5339355469</ele>
        <time>2011-06-15T09:17:00Z</time>
      </trkpt>
      <trkpt lat="45.1291" lon="2.58935">
        <ele>1543.0532226562</ele>
        <time>2011-06-15T09:17:15Z</time>
      </trkpt>
      <trkpt lat="45.12908" lon="2.58942">
        <ele>1543.0532226562</ele>
        <time>2011-06-15T09:17:49Z</time>
      </trkpt>
      <trkpt lat="45.12906" lon="2.5895">
        <ele>1542.5727539062</ele>
        <time>2011-06-15T09:18:18Z</time>
      </trkpt>
      <trkpt lat="45.12903" lon="2.58958">
        <ele>1544.0146484375</ele>
        <time>2011-06-15T09:18:40Z</time>
      </trkpt>
      <trkpt lat="45.12901" lon="2.58966">
        <ele>1542.5727539062</ele>
        <time>2011-06-15T09:19:02Z</time>
      </trkpt>
      <trkpt lat="45.12903" lon="2.58974">
        <ele>1541.1306152344</ele>
        <time>2011-06-15T09:19:18Z</time>
      </trkpt>
      <trkpt lat="45.12902" lon="2.58984">
        <ele>1539.6887207031</ele>
        <time>2011-06-15T09:19:52Z</time>
      </trkpt>
      <trkpt lat="45.12902" lon="2.58996">
        <ele>1539.6887207031</ele>
        <time>2011-06-15T09:20:07Z</time>
      </trkpt>
      <trkpt lat="45.129" lon="2.5901">
        <ele>1537.7661132812</ele>
        <time>2011-06-15T09:20:28Z</time>
      </trkpt>
      <trkpt lat="45.12897" lon="2.59028">
        <ele>1536.8046875</ele>
        <time>2011-06-15T09:20:47Z</time>
      </trkpt>
      <trkpt lat="45.12893" lon="2.59053">
        <ele>1535.3627929688</ele>
        <time>2011-06-15T09:21:10Z</time>
      </trkpt>
      <trkpt lat="45.12891" lon="2.5907">
        <ele>1534.4016113281</ele>
        <time>2011-06-15T09:21:28Z</time>
      </trkpt>
      <trkpt lat="45.12887" lon="2.59087">
        <ele>1532.9594726562</ele>
        <time>2011-06-15T09:21:46Z</time>
      </trkpt>
      <trkpt lat="45.12885" lon="2.591">
        <ele>1531.998046875</ele>
        <time>2011-06-15T09:22:04Z</time>
      </trkpt>
      <trkpt lat="45.12882" lon="2.59111">
        <ele>1531.0368652344</ele>
        <time>2011-06-15T09:22:17Z</time>
      </trkpt>
      <trkpt lat="45.12878" lon="2.59124">
        <ele>1529.1140136719</ele>
        <time>2011-06-15T09:22:41Z</time>
      </trkpt>
      <trkpt lat="45.12871" lon="2.59137">
        <ele>1528.1528320312</ele>
        <time>2011-06-15T09:22:57Z</time>
      </trkpt>
      <trkpt lat="45.12863" lon="2.59146">
        <ele>1528.1528320312</ele>
        <time>2011-06-15T09:23:18Z</time>
      </trkpt>
      <trkpt lat="45.12858" lon="2.59156">
        <ele>1527.6721191406</ele>
        <time>2011-06-15T09:23:37Z</time>
      </trkpt>
      <trkpt lat="45.12849" lon="2.59172">
        <ele>1526.2302246094</ele>
        <time>2011-06-15T09:24:01Z</time>
      </trkpt>
      <trkpt lat="45.12842" lon="2.59185">
        <ele>1524.7883300781</ele>
        <time>2011-06-15T09:24:19Z</time>
      </trkpt>
      <trkpt lat="45.12836" lon="2.59193">
        <ele>1525.2687988281</ele>
        <time>2011-06-15T09:24:36Z</time>
      </trkpt>
      <trkpt lat="45.12832" lon="2.59195">
        <ele>1524.7883300781</ele>
        <time>2011-06-15T09:24:47Z</time>
      </trkpt>
      <trkpt lat="45.12826" lon="2.59207">
        <ele>1523.8269042969</ele>
        <time>2011-06-15T09:25:00Z</time>
      </trkpt>
      <trkpt lat="45.12822" lon="2.59217">
        <ele>1522.8657226562</ele>
        <time>2011-06-15T09:25:11Z</time>
      </trkpt>
      <trkpt lat="45.1282" lon="2.59218">
        <ele>1523.3464355469</ele>
        <time>2011-06-15T09:25:14Z</time>
      </trkpt>
      <trkpt lat="45.12814" lon="2.59224">
        <ele>1523.3464355469</ele>
        <time>2011-06-15T09:25:31Z</time>
      </trkpt>
      <trkpt lat="45.12814" lon="2.59224">
        <ele>1523.3464355469</ele>
        <time>2011-06-15T09:26:02Z</time>
      </trkpt>
      <trkpt lat="45.12804" lon="2.59242">
        <ele>1523.8269042969</ele>
        <time>2011-06-15T09:26:20Z</time>
      </trkpt>
      <trkpt lat="45.12795" lon="2.59258">
        <ele>1524.7883300781</ele>
        <time>2011-06-15T09:26:36Z</time>
      </trkpt>
      <trkpt lat="45.12793" lon="2.5926">
        <ele>1525.2687988281</ele>
        <time>2011-06-15T09:26:40Z</time>
      </trkpt>
      <trkpt lat="45.12788" lon="2.59266">
        <ele>1526.2302246094</ele>
        <time>2011-06-15T09:26:50Z</time>
      </trkpt>
      <trkpt lat="45.12781" lon="2.59278">
        <ele>1526.7109375</ele>
        <time>2011-06-15T09:27:03Z</time>
      </trkpt>
      <trkpt lat="45.1278" lon="2.59279">
        <ele>1527.6721191406</ele>
        <time>2011-06-15T09:27:06Z</time>
      </trkpt>
      <trkpt lat="45.12772" lon="2.59293">
        <ele>1528.6335449219</ele>
        <time>2011-06-15T09:27:22Z</time>
      </trkpt>
      <trkpt lat="45.12768" lon="2.59304">
        <ele>1529.5947265625</ele>
        <time>2011-06-15T09:27:36Z</time>
      </trkpt>
      <trkpt lat="45.12765" lon="2.59314">
        <ele>1530.0754394531</ele>
        <time>2011-06-15T09:27:49Z</time>
      </trkpt>
      <trkpt lat="45.12761" lon="2.59318">
        <ele>1531.0368652344</ele>
        <time>2011-06-15T09:27:57Z</time>
      </trkpt>
      <trkpt lat="45.12753" lon="2.59324">
        <ele>1532.4790039062</ele>
        <time>2011-06-15T09:28:13Z</time>
      </trkpt>
      <trkpt lat="45.12751" lon="2.59327">
        <ele>1533.9208984375</ele>
        <time>2011-06-15T09:28:38Z</time>
      </trkpt>
      <trkpt lat="45.12743" lon="2.59338">
        <ele>1535.3627929688</ele>
        <time>2011-06-15T09:29:06Z</time>
      </trkpt>
      <trkpt lat="45.12738" lon="2.5935">
        <ele>1536.8046875</ele>
        <time>2011-06-15T09:29:22Z</time>
      </trkpt>
      <trkpt lat="45.12737" lon="2.59353">
        <ele>1536.8046875</ele>
        <time>2011-06-15T09:29:26Z</time>
      </trkpt>
      <trkpt lat="45.12733" lon="2.59363">
        <ele>1538.7275390625</ele>
        <time>2011-06-15T09:29:40Z</time>
      </trkpt>
      <trkpt lat="45.12729" lon="2.59367">
        <ele>1538.7275390625</ele>
        <time>2011-06-15T09:29:58Z</time>
      </trkpt>
      <trkpt lat="45.12722" lon="2.59379">
        <ele>1540.6499023438</ele>
        <time>2011-06-15T09:30:20Z</time>
      </trkpt>
      <trkpt lat="45.12718" lon="2.59384">
        <ele>1542.0920410156</ele>
        <time>2011-06-15T09:30:32Z</time>
      </trkpt>
      <trkpt lat="45.12717" lon="2.59391">
        <ele>1543.5339355469</ele>
        <time>2011-06-15T09:31:01Z</time>
      </trkpt>
      <trkpt lat="45.12716" lon="2.59394">
        <ele>1543.5339355469</ele>
        <time>2011-06-15T09:31:04Z</time>
      </trkpt>
      <trkpt lat="45.12714" lon="2.594">
        <ele>1544.9758300781</ele>
        <time>2011-06-15T09:31:14Z</time>
      </trkpt>
      <trkpt lat="45.12714" lon="2.59408">
        <ele>1546.41796875</ele>
        <time>2011-06-15T09:31:39Z</time>
      </trkpt>
      <trkpt lat="45.12712" lon="2.59414">
        <ele>1547.3791503906</ele>
        <time>2011-06-15T09:31:56Z</time>
      </trkpt>
      <trkpt lat="45.12709" lon="2.59426">
        <ele>1550.2634277344</ele>
        <time>2011-06-15T09:32:12Z</time>
      </trkpt>
      <trkpt lat="45.12707" lon="2.59428">
        <ele>1550.7438964844</ele>
        <time>2011-06-15T09:32:27Z</time>
      </trkpt>
      <trkpt lat="45.12707" lon="2.59432">
        <ele>1551.7053222656</ele>
        <time>2011-06-15T09:32:50Z</time>
      </trkpt>
      <trkpt lat="45.12707" lon="2.5944">
        <ele>1553.1472167969</ele>
        <time>2011-06-15T09:33:12Z</time>
      </trkpt>
      <trkpt lat="45.12703" lon="2.59446">
        <ele>1554.1086425781</ele>
        <time>2011-06-15T09:33:36Z</time>
      </trkpt>
      <trkpt lat="45.12704" lon="2.59454">
        <ele>1555.0698242188</ele>
        <time>2011-06-15T09:34:00Z</time>
      </trkpt>
      <trkpt lat="45.12702" lon="2.59456">
        <ele>1555.0698242188</ele>
        <time>2011-06-15T09:34:23Z</time>
      </trkpt>
      <trkpt lat="45.12697" lon="2.59478">
        <ele>1557.9538574219</ele>
        <time>2011-06-15T09:34:48Z</time>
      </trkpt>
      <trkpt lat="45.12689" lon="2.59495">
        <ele>1560.3569335938</ele>
        <time>2011-06-15T09:35:16Z</time>
      </trkpt>
      <trkpt lat="45.12687" lon="2.59508">
        <ele>1562.2795410156</ele>
        <time>2011-06-15T09:35:43Z</time>
      </trkpt>
      <trkpt lat="45.12684" lon="2.59518">
        <ele>1563.7214355469</ele>
        <time>2011-06-15T09:35:55Z</time>
      </trkpt>
      <trkpt lat="45.12681" lon="2.59533">
        <ele>1563.7214355469</ele>
        <time>2011-06-15T09:36:13Z</time>
      </trkpt>
      <trkpt lat="45.12679" lon="2.59543">
        <ele>1565.64453125</ele>
        <time>2011-06-15T09:36:27Z</time>
      </trkpt>
      <trkpt lat="45.12677" lon="2.59547">
        <ele>1566.125</ele>
        <time>2011-06-15T09:36:31Z</time>
      </trkpt>
      <trkpt lat="45.12669" lon="2.59554">
        <ele>1567.0864257812</ele>
        <time>2011-06-15T09:36:42Z</time>
      </trkpt>
      <trkpt lat="45.12666" lon="2.5956">
        <ele>1567.5668945312</ele>
        <time>2011-06-15T09:36:58Z</time>
      </trkpt>
      <trkpt lat="45.12666" lon="2.59571">
        <ele>1569.0090332031</ele>
        <time>2011-06-15T09:37:18Z</time>
      </trkpt>
      <trkpt lat="45.12657" lon="2.59598">
        <ele>1570.931640625</ele>
        <time>2011-06-15T09:37:52Z</time>
      </trkpt>
      <trkpt lat="45.12655" lon="2.59602">
        <ele>1571.412109375</ele>
        <time>2011-06-15T09:38:23Z</time>
      </trkpt>
      <trkpt lat="45.12655" lon="2.59605">
        <ele>1571.412109375</ele>
        <time>2011-06-15T09:38:43Z</time>
      </trkpt>
      <trkpt lat="45.12654" lon="2.59605">
        <ele>1569.9702148438</ele>
        <time>2011-06-15T09:38:59Z</time>
      </trkpt>
      <trkpt lat="45.12654" lon="2.59605">
        <ele>1571.412109375</ele>
        <time>2011-06-15T09:39:01Z</time>
      </trkpt>
      <trkpt lat="45.12651" lon="2.59614">
        <ele>1570.4509277344</ele>
        <time>2011-06-15T09:39:14Z</time>
      </trkpt>
      <trkpt lat="45.12643" lon="2.59642">
        <ele>1570.4509277344</ele>
        <time>2011-06-15T09:39:37Z</time>
      </trkpt>
      <trkpt lat="45.12634" lon="2.59665">
        <ele>1569.0090332031</ele>
        <time>2011-06-15T09:39:57Z</time>
      </trkpt>
      <trkpt lat="45.12628" lon="2.59684">
        <ele>1567.5668945312</ele>
        <time>2011-06-15T09:40:12Z</time>
      </trkpt>
      <trkpt lat="45.12625" lon="2.59689">
        <ele>1567.0864257812</ele>
        <time>2011-06-15T09:40:16Z</time>
      </trkpt>
      <trkpt lat="45.12619" lon="2.59711">
        <ele>1567.5668945312</ele>
        <time>2011-06-15T09:40:35Z</time>
      </trkpt>
      <trkpt lat="45.12613" lon="2.59728">
        <ele>1565.64453125</ele>
        <time>2011-06-15T09:40:51Z</time>
      </trkpt>
      <trkpt lat="45.12608" lon="2.59747">
        <ele>1563.2409667969</ele>
        <time>2011-06-15T09:41:08Z</time>
      </trkpt>
      <trkpt lat="45.12602" lon="2.59763">
        <ele>1562.7602539062</ele>
        <time>2011-06-15T09:41:30Z</time>
      </trkpt>
      <trkpt lat="45.12598" lon="2.59769">
        <ele>1561.7990722656</ele>
        <time>2011-06-15T09:41:47Z</time>
      </trkpt>
      <trkpt lat="45.12594" lon="2.5978">
        <ele>1558.4343261719</ele>
        <time>2011-06-15T09:42:20Z</time>
      </trkpt>
      <trkpt lat="45.1259" lon="2.59797">
        <ele>1556.0310058594</ele>
        <time>2011-06-15T09:42:52Z</time>
      </trkpt>
      <trkpt lat="45.12581" lon="2.59821">
        <ele>1553.1472167969</ele>
        <time>2011-06-15T09:43:19Z</time>
      </trkpt>
      <trkpt lat="45.12575" lon="2.59841">
        <ele>1550.2634277344</ele>
        <time>2011-06-15T09:43:42Z</time>
      </trkpt>
      <trkpt lat="45.12568" lon="2.59858">
        <ele>1548.8212890625</ele>
        <time>2011-06-15T09:44:03Z</time>
      </trkpt>
      <trkpt lat="45.12558" lon="2.59878">
        <ele>1547.3791503906</ele>
        <time>2011-06-15T09:44:28Z</time>
      </trkpt>
      <trkpt lat="45.12552" lon="2.59886">
        <ele>1544.9758300781</ele>
        <time>2011-06-15T09:44:55Z</time>
      </trkpt>
      <trkpt lat="45.12544" lon="2.59902">
        <ele>1541.611328125</ele>
        <time>2011-06-15T09:45:23Z</time>
      </trkpt>
      <trkpt lat="45.12534" lon="2.59916">
        <ele>1539.2080078125</ele>
        <time>2011-06-15T09:45:48Z</time>
      </trkpt>
      <trkpt lat="45.12531" lon="2.5992">
        <ele>1538.7275390625</ele>
        <time>2011-06-15T09:46:07Z</time>
      </trkpt>
      <trkpt lat="45.12531" lon="2.59921">
        <ele>1538.7275390625</ele>
        <time>2011-06-15T09:46:44Z</time>
      </trkpt>
      <trkpt lat="45.12522" lon="2.59936">
        <ele>1536.32421875</ele>
        <time>2011-06-15T09:47:01Z</time>
      </trkpt>
      <trkpt lat="45.12522" lon="2.59937">
        <ele>1536.32421875</ele>
        <time>2011-06-15T09:47:02Z</time>
      </trkpt>
      <trkpt lat="45.12523" lon="2.5996">
        <ele>1534.8823242188</ele>
        <time>2011-06-15T09:47:22Z</time>
      </trkpt>
      <trkpt lat="45.12523" lon="2.59962">
        <ele>1534.4016113281</ele>
        <time>2011-06-15T09:47:24Z</time>
      </trkpt>
      <trkpt lat="45.12519" lon="2.59985">
        <ele>1531.998046875</ele>
        <time>2011-06-15T09:47:42Z</time>
      </trkpt>
      <trkpt lat="45.12512" lon="2.60002">
        <ele>1530.5561523438</ele>
        <time>2011-06-15T09:47:58Z</time>
      </trkpt>
      <trkpt lat="45.1251" lon="2.60022">
        <ele>1529.5947265625</ele>
        <time>2011-06-15T09:48:16Z</time>
      </trkpt>
      <trkpt lat="45.12503" lon="2.60042">
        <ele>1527.6721191406</ele>
        <time>2011-06-15T09:48:38Z</time>
      </trkpt>
      <trkpt lat="45.12505" lon="2.60042">
        <ele>1527.6721191406</ele>
        <time>2011-06-15T09:48:57Z</time>
      </trkpt>
      <trkpt lat="45.12501" lon="2.6005">
        <ele>1526.7109375</ele>
        <time>2011-06-15T09:49:17Z</time>
      </trkpt>
      <trkpt lat="45.12494" lon="2.6007">
        <ele>1525.7495117188</ele>
        <time>2011-06-15T09:49:36Z</time>
      </trkpt>
      <trkpt lat="45.12484" lon="2.60084">
        <ele>1524.3076171875</ele>
        <time>2011-06-15T09:49:52Z</time>
      </trkpt>
      <trkpt lat="45.12475" lon="2.60103">
        <ele>1524.3076171875</ele>
        <time>2011-06-15T09:50:11Z</time>
      </trkpt>
      <trkpt lat="45.12468" lon="2.60118">
        <ele>1524.3076171875</ele>
        <time>2011-06-15T09:50:26Z</time>
      </trkpt>
      <trkpt lat="45.12469" lon="2.60118">
        <ele>1523.8269042969</ele>
        <time>2011-06-15T09:50:27Z</time>
      </trkpt>
      <trkpt lat="45.1248" lon="2.60105">
        <ele>1524.3076171875</ele>
        <time>2011-06-15T09:50:45Z</time>
      </trkpt>
      <trkpt lat="45.12476" lon="2.60108">
        <ele>1524.3076171875</ele>
        <time>2011-06-15T09:51:36Z</time>
      </trkpt>
      <trkpt lat="45.1247" lon="2.60113">
        <ele>1524.3076171875</ele>
        <time>2011-06-15T09:51:46Z</time>
      </trkpt>
      <trkpt lat="45.12469" lon="2.60118">
        <ele>1524.3076171875</ele>
        <time>2011-06-15T09:51:49Z</time>
      </trkpt>
      <trkpt lat="45.12462" lon="2.60132">
        <ele>1524.7883300781</ele>
        <time>2011-06-15T09:52:04Z</time>
      </trkpt>
      <trkpt lat="45.1246" lon="2.60139">
        <ele>1524.3076171875</ele>
        <time>2011-06-15T09:52:10Z</time>
      </trkpt>
      <trkpt lat="45.1245" lon="2.60156">
        <ele>1523.8269042969</ele>
        <time>2011-06-15T09:52:30Z</time>
      </trkpt>
      <trkpt lat="45.12446" lon="2.60171">
        <ele>1522.8657226562</ele>
        <time>2011-06-15T09:52:45Z</time>
      </trkpt>
      <trkpt lat="45.12441" lon="2.60179">
        <ele>1521.904296875</ele>
        <time>2011-06-15T09:52:52Z</time>
      </trkpt>
      <trkpt lat="45.12438" lon="2.60191">
        <ele>1521.4235839844</ele>
        <time>2011-06-15T09:53:01Z</time>
      </trkpt>
      <trkpt lat="45.12428" lon="2.60204">
        <ele>1520.9431152344</ele>
        <time>2011-06-15T09:53:14Z</time>
      </trkpt>
      <trkpt lat="45.12423" lon="2.60221">
        <ele>1520.9431152344</ele>
        <time>2011-06-15T09:53:28Z</time>
      </trkpt>
      <trkpt lat="45.12423" lon="2.60241">
        <ele>1520.9431152344</ele>
        <time>2011-06-15T09:53:43Z</time>
      </trkpt>
      <trkpt lat="45.12418" lon="2.60261">
        <ele>1520.9431152344</ele>
        <time>2011-06-15T09:53:59Z</time>
      </trkpt>
      <trkpt lat="45.12416" lon="2.60282">
        <ele>1520.4624023438</ele>
        <time>2011-06-15T09:54:12Z</time>
      </trkpt>
      <trkpt lat="45.12414" lon="2.60299">
        <ele>1519.5012207031</ele>
        <time>2011-06-15T09:54:26Z</time>
      </trkpt>
      <trkpt lat="45.12411" lon="2.60321">
        <ele>1519.9816894531</ele>
        <time>2011-06-15T09:54:47Z</time>
      </trkpt>
      <trkpt lat="45.12409" lon="2.60324">
        <ele>1519.9816894531</ele>
        <time>2011-06-15T09:54:50Z</time>
      </trkpt>
      <trkpt lat="45.12407" lon="2.6033">
        <ele>1519.9816894531</ele>
        <time>2011-06-15T09:54:54Z</time>
      </trkpt>
      <trkpt lat="45.12405" lon="2.60348">
        <ele>1520.4624023438</ele>
        <time>2011-06-15T09:55:11Z</time>
      </trkpt>
      <trkpt lat="45.12402" lon="2.60368">
        <ele>1522.3850097656</ele>
        <time>2011-06-15T09:55:31Z</time>
      </trkpt>
      <trkpt lat="45.124" lon="2.60375">
        <ele>1522.8657226562</ele>
        <time>2011-06-15T09:55:37Z</time>
      </trkpt>
      <trkpt lat="45.12391" lon="2.60391">
        <ele>1524.3076171875</ele>
        <time>2011-06-15T09:55:55Z</time>
      </trkpt>
      <trkpt lat="45.12383" lon="2.60407">
        <ele>1524.7883300781</ele>
        <time>2011-06-15T09:56:13Z</time>
      </trkpt>
      <trkpt lat="45.12384" lon="2.60421">
        <ele>1526.2302246094</ele>
        <time>2011-06-15T09:56:32Z</time>
      </trkpt>
      <trkpt lat="45.12385" lon="2.60429">
        <ele>1527.1916503906</ele>
        <time>2011-06-15T09:56:44Z</time>
      </trkpt>
      <trkpt lat="45.12383" lon="2.60446">
        <ele>1527.6721191406</ele>
        <time>2011-06-15T09:56:59Z</time>
      </trkpt>
      <trkpt lat="45.12382" lon="2.6045">
        <ele>1528.1528320312</ele>
        <time>2011-06-15T09:57:04Z</time>
      </trkpt>
      <trkpt lat="45.12377" lon="2.60463">
        <ele>1529.1140136719</ele>
        <time>2011-06-15T09:57:19Z</time>
      </trkpt>
      <trkpt lat="45.12374" lon="2.60475">
        <ele>1529.5947265625</ele>
        <time>2011-06-15T09:57:31Z</time>
      </trkpt>
      <trkpt lat="45.12368" lon="2.60496">
        <ele>1531.0368652344</ele>
        <time>2011-06-15T09:57:50Z</time>
      </trkpt>
      <trkpt lat="45.12364" lon="2.60505">
        <ele>1531.5173339844</ele>
        <time>2011-06-15T09:58:01Z</time>
      </trkpt>
      <trkpt lat="45.1236" lon="2.60517">
        <ele>1533.4401855469</ele>
        <time>2011-06-15T09:58:17Z</time>
      </trkpt>
      <trkpt lat="45.12355" lon="2.60529">
        <ele>1534.4016113281</ele>
        <time>2011-06-15T09:58:36Z</time>
      </trkpt>
      <trkpt lat="45.12351" lon="2.60542">
        <ele>1536.32421875</ele>
        <time>2011-06-15T09:58:53Z</time>
      </trkpt>
      <trkpt lat="45.12347" lon="2.60553">
        <ele>1537.2854003906</ele>
        <time>2011-06-15T09:59:07Z</time>
      </trkpt>
      <trkpt lat="45.12341" lon="2.60565">
        <ele>1537.2854003906</ele>
        <time>2011-06-15T09:59:21Z</time>
      </trkpt>
      <trkpt lat="45.1234" lon="2.60569">
        <ele>1537.7661132812</ele>
        <time>2011-06-15T09:59:44Z</time>
      </trkpt>
      <trkpt lat="45.1234" lon="2.60575">
        <ele>1538.2468261719</ele>
        <time>2011-06-15T10:00:02Z</time>
      </trkpt>
      <trkpt lat="45.1234" lon="2.60576">
        <ele>1538.7275390625</ele>
        <time>2011-06-15T10:00:44Z</time>
      </trkpt>
      <trkpt lat="45.12327" lon="2.60591">
        <ele>1539.2080078125</ele>
        <time>2011-06-15T10:01:03Z</time>
      </trkpt>
      <trkpt lat="45.12317" lon="2.60609">
        <ele>1540.1694335938</ele>
        <time>2011-06-15T10:01:22Z</time>
      </trkpt>
      <trkpt lat="45.12316" lon="2.60612">
        <ele>1539.6887207031</ele>
        <time>2011-06-15T10:01:48Z</time>
      </trkpt>
      <trkpt lat="45.12315" lon="2.60616">
        <ele>1540.6499023438</ele>
        <time>2011-06-15T10:02:16Z</time>
      </trkpt>
      <trkpt lat="45.12314" lon="2.60626">
        <ele>1541.611328125</ele>
        <time>2011-06-15T10:02:50Z</time>
      </trkpt>
      <trkpt lat="45.12315" lon="2.60633">
        <ele>1543.5339355469</ele>
        <time>2011-06-15T10:03:18Z</time>
      </trkpt>
      <trkpt lat="45.12316" lon="2.60647">
        <ele>1544.0146484375</ele>
        <time>2011-06-15T10:03:40Z</time>
      </trkpt>
      <trkpt lat="45.12318" lon="2.60664">
        <ele>1545.9372558594</ele>
        <time>2011-06-15T10:04:02Z</time>
      </trkpt>
      <trkpt lat="45.12318" lon="2.60682">
        <ele>1547.8598632812</ele>
        <time>2011-06-15T10:04:23Z</time>
      </trkpt>
      <trkpt lat="45.12319" lon="2.60694">
        <ele>1548.8212890625</ele>
        <time>2011-06-15T10:04:38Z</time>
      </trkpt>
      <trkpt lat="45.12317" lon="2.60696">
        <ele>1548.8212890625</ele>
        <time>2011-06-15T10:05:02Z</time>
      </trkpt>
      <trkpt lat="45.12318" lon="2.60703">
        <ele>1550.2634277344</ele>
        <time>2011-06-15T10:05:45Z</time>
      </trkpt>
      <trkpt lat="45.12318" lon="2.60723">
        <ele>1551.7053222656</ele>
        <time>2011-06-15T10:06:13Z</time>
      </trkpt>
      <trkpt lat="45.12321" lon="2.60733">
        <ele>1553.1472167969</ele>
        <time>2011-06-15T10:06:41Z</time>
      </trkpt>
      <trkpt lat="45.12325" lon="2.60746">
        <ele>1554.1086425781</ele>
        <time>2011-06-15T10:06:56Z</time>
      </trkpt>
      <trkpt lat="45.1233" lon="2.60757">
        <ele>1555.0698242188</ele>
        <time>2011-06-15T10:07:10Z</time>
      </trkpt>
      <trkpt lat="45.12332" lon="2.60762">
        <ele>1555.5505371094</ele>
        <time>2011-06-15T10:07:15Z</time>
      </trkpt>
      <trkpt lat="45.12332" lon="2.60769">
        <ele>1556.0310058594</ele>
        <time>2011-06-15T10:07:34Z</time>
      </trkpt>
      <trkpt lat="45.12333" lon="2.60774">
        <ele>1556.9924316406</ele>
        <time>2011-06-15T10:07:59Z</time>
      </trkpt>
      <trkpt lat="45.1233" lon="2.60772">
        <ele>1556.51171875</ele>
        <time>2011-06-15T10:08:21Z</time>
      </trkpt>
      <trkpt lat="45.1234" lon="2.60796">
        <ele>1558.4343261719</ele>
        <time>2011-06-15T10:09:39Z</time>
      </trkpt>
      <trkpt lat="45.12346" lon="2.60807">
        <ele>1559.8762207031</ele>
        <time>2011-06-15T10:09:56Z</time>
      </trkpt>
      <trkpt lat="45.12349" lon="2.60819">
        <ele>1560.8376464844</ele>
        <time>2011-06-15T10:10:18Z</time>
      </trkpt>
      <trkpt lat="45.12354" lon="2.60833">
        <ele>1562.7602539062</ele>
        <time>2011-06-15T10:10:38Z</time>
      </trkpt>
      <trkpt lat="45.12356" lon="2.60846">
        <ele>1563.7214355469</ele>
        <time>2011-06-15T10:11:02Z</time>
      </trkpt>
      <trkpt lat="45.12358" lon="2.60867">
        <ele>1565.64453125</ele>
        <time>2011-06-15T10:11:24Z</time>
      </trkpt>
      <trkpt lat="45.12358" lon="2.60883">
        <ele>1567.0864257812</ele>
        <time>2011-06-15T10:11:45Z</time>
      </trkpt>
      <trkpt lat="45.12358" lon="2.60902">
        <ele>1569.0090332031</ele>
        <time>2011-06-15T10:12:08Z</time>
      </trkpt>
      <trkpt lat="45.1236" lon="2.60916">
        <ele>1570.4509277344</ele>
        <time>2011-06-15T10:12:25Z</time>
      </trkpt>
      <trkpt lat="45.12361" lon="2.60928">
        <ele>1570.931640625</ele>
        <time>2011-06-15T10:12:43Z</time>
      </trkpt>
      <trkpt lat="45.12362" lon="2.60937">
        <ele>1572.3735351562</ele>
        <time>2011-06-15T10:12:59Z</time>
      </trkpt>
      <trkpt lat="45.1236" lon="2.60948">
        <ele>1572.8542480469</ele>
        <time>2011-06-15T10:13:21Z</time>
      </trkpt>
      <trkpt lat="45.12361" lon="2.60955">
        <ele>1573.3349609375</ele>
        <time>2011-06-15T10:13:27Z</time>
      </trkpt>
      <trkpt lat="45.12362" lon="2.60972">
        <ele>1574.7768554688</ele>
        <time>2011-06-15T10:13:44Z</time>
      </trkpt>
      <trkpt lat="45.12366" lon="2.60992">
        <ele>1576.21875</ele>
        <time>2011-06-15T10:14:07Z</time>
      </trkpt>
      <trkpt lat="45.1237" lon="2.61013">
        <ele>1578.1413574219</ele>
        <time>2011-06-15T10:14:32Z</time>
      </trkpt>
      <trkpt lat="45.12371" lon="2.6103">
        <ele>1579.5832519531</ele>
        <time>2011-06-15T10:14:57Z</time>
      </trkpt>
      <trkpt lat="45.12369" lon="2.61046">
        <ele>1582.4675292969</ele>
        <time>2011-06-15T10:15:23Z</time>
      </trkpt>
      <trkpt lat="45.1237" lon="2.61063">
        <ele>1583.4287109375</ele>
        <time>2011-06-15T10:15:42Z</time>
      </trkpt>
      <trkpt lat="45.12369" lon="2.61087">
        <ele>1584.8708496094</ele>
        <time>2011-06-15T10:16:04Z</time>
      </trkpt>
      <trkpt lat="45.12368" lon="2.61102">
        <ele>1584.8708496094</ele>
        <time>2011-06-15T10:16:18Z</time>
      </trkpt>
      <trkpt lat="45.12372" lon="2.61126">
        <ele>1584.8708496094</ele>
        <time>2011-06-15T10:16:36Z</time>
      </trkpt>
      <trkpt lat="45.12372" lon="2.61142">
        <ele>1584.3901367188</ele>
        <time>2011-06-15T10:16:50Z</time>
      </trkpt>
      <trkpt lat="45.12372" lon="2.61156">
        <ele>1585.83203125</ele>
        <time>2011-06-15T10:17:10Z</time>
      </trkpt>
      <trkpt lat="45.1237" lon="2.61174">
        <ele>1588.2353515625</ele>
        <time>2011-06-15T10:17:32Z</time>
      </trkpt>
      <trkpt lat="45.12369" lon="2.6119">
        <ele>1588.7160644531</ele>
        <time>2011-06-15T10:17:59Z</time>
      </trkpt>
      <trkpt lat="45.12368" lon="2.61205">
        <ele>1590.6384277344</ele>
        <time>2011-06-15T10:18:15Z</time>
      </trkpt>
      <trkpt lat="45.12369" lon="2.61229">
        <ele>1592.0805664062</ele>
        <time>2011-06-15T10:18:39Z</time>
      </trkpt>
      <trkpt lat="45.12366" lon="2.6125">
        <ele>1593.5224609375</ele>
        <time>2011-06-15T10:19:01Z</time>
      </trkpt>
      <trkpt lat="45.12365" lon="2.6127">
        <ele>1594.4836425781</ele>
        <time>2011-06-15T10:19:19Z</time>
      </trkpt>
      <trkpt lat="45.12364" lon="2.61293">
        <ele>1595.4450683594</ele>
        <time>2011-06-15T10:19:39Z</time>
      </trkpt>
      <trkpt lat="45.12363" lon="2.61314">
        <ele>1596.4067382812</ele>
        <time>2011-06-15T10:20:01Z</time>
      </trkpt>
      <trkpt lat="45.12363" lon="2.61339">
        <ele>1598.3291015625</ele>
        <time>2011-06-15T10:20:23Z</time>
      </trkpt>
      <trkpt lat="45.12362" lon="2.61359">
        <ele>1599.7712402344</ele>
        <time>2011-06-15T10:20:39Z</time>
      </trkpt>
      <trkpt lat="45.12363" lon="2.61377">
        <ele>1599.7712402344</ele>
        <time>2011-06-15T10:20:58Z</time>
      </trkpt>
      <trkpt lat="45.12361" lon="2.61398">
        <ele>1600.732421875</ele>
        <time>2011-06-15T10:21:14Z</time>
      </trkpt>
      <trkpt lat="45.12366" lon="2.61415">
        <ele>1600.732421875</ele>
        <time>2011-06-15T10:21:29Z</time>
      </trkpt>
      <trkpt lat="45.12374" lon="2.61435">
        <ele>1601.6938476562</ele>
        <time>2011-06-15T10:21:50Z</time>
      </trkpt>
      <trkpt lat="45.12381" lon="2.61448">
        <ele>1602.6550292969</ele>
        <time>2011-06-15T10:22:06Z</time>
      </trkpt>
      <trkpt lat="45.12389" lon="2.61466">
        <ele>1602.6550292969</ele>
        <time>2011-06-15T10:22:24Z</time>
      </trkpt>
      <trkpt lat="45.124" lon="2.61488">
        <ele>1603.1357421875</ele>
        <time>2011-06-15T10:22:47Z</time>
      </trkpt>
      <trkpt lat="45.12405" lon="2.61503">
        <ele>1605.0583496094</ele>
        <time>2011-06-15T10:23:07Z</time>
      </trkpt>
      <trkpt lat="45.12407" lon="2.61507">
        <ele>1605.5390625</ele>
        <time>2011-06-15T10:23:21Z</time>
      </trkpt>
      <trkpt lat="45.12414" lon="2.61518">
        <ele>1606.01953125</ele>
        <time>2011-06-15T10:23:36Z</time>
      </trkpt>
      <trkpt lat="45.12418" lon="2.61535">
        <ele>1606.9809570312</ele>
        <time>2011-06-15T10:23:53Z</time>
      </trkpt>
      <trkpt lat="45.12425" lon="2.61548">
        <ele>1606.9809570312</ele>
        <time>2011-06-15T10:24:09Z</time>
      </trkpt>
      <trkpt lat="45.12433" lon="2.61562">
        <ele>1606.01953125</ele>
        <time>2011-06-15T10:24:27Z</time>
      </trkpt>
      <trkpt lat="45.12434" lon="2.61564">
        <ele>1606.01953125</ele>
        <time>2011-06-15T10:24:29Z</time>
      </trkpt>
      <trkpt lat="45.1244" lon="2.61584">
        <ele>1606.01953125</ele>
        <time>2011-06-15T10:24:47Z</time>
      </trkpt>
      <trkpt lat="45.12443" lon="2.61591">
        <ele>1605.5390625</ele>
        <time>2011-06-15T10:24:53Z</time>
      </trkpt>
      <trkpt lat="45.12448" lon="2.61608">
        <ele>1604.5776367188</ele>
        <time>2011-06-15T10:25:09Z</time>
      </trkpt>
      <trkpt lat="45.12454" lon="2.61615">
        <ele>1603.6164550781</ele>
        <time>2011-06-15T10:25:20Z</time>
      </trkpt>
      <trkpt lat="45.12459" lon="2.61627">
        <ele>1602.1743164062</ele>
        <time>2011-06-15T10:25:39Z</time>
      </trkpt>
      <trkpt lat="45.12465" lon="2.61645">
        <ele>1602.6550292969</ele>
        <time>2011-06-15T10:25:59Z</time>
      </trkpt>
      <trkpt lat="45.12466" lon="2.61667">
        <ele>1603.1357421875</ele>
        <time>2011-06-15T10:26:18Z</time>
      </trkpt>
      <trkpt lat="45.12465" lon="2.61682">
        <ele>1604.0971679688</ele>
        <time>2011-06-15T10:26:32Z</time>
      </trkpt>
      <trkpt lat="45.12461" lon="2.61699">
        <ele>1605.0583496094</ele>
        <time>2011-06-15T10:26:48Z</time>
      </trkpt>
      <trkpt lat="45.12457" lon="2.61716">
        <ele>1606.01953125</ele>
        <time>2011-06-15T10:27:06Z</time>
      </trkpt>
      <trkpt lat="45.12454" lon="2.61726">
        <ele>1606.01953125</ele>
        <time>2011-06-15T10:27:15Z</time>
      </trkpt>
      <trkpt lat="45.12446" lon="2.61744">
        <ele>1606.5002441406</ele>
        <time>2011-06-15T10:27:32Z</time>
      </trkpt>
      <trkpt lat="45.12441" lon="2.61757">
        <ele>1606.9809570312</ele>
        <time>2011-06-15T10:27:47Z</time>
      </trkpt>
      <trkpt lat="45.12439" lon="2.61776">
        <ele>1607.9423828125</ele>
        <time>2011-06-15T10:28:03Z</time>
      </trkpt>
      <trkpt lat="45.12437" lon="2.61795">
        <ele>1608.4228515625</ele>
        <time>2011-06-15T10:28:18Z</time>
      </trkpt>
      <trkpt lat="45.12435" lon="2.61819">
        <ele>1608.9035644531</ele>
        <time>2011-06-15T10:28:37Z</time>
      </trkpt>
      <trkpt lat="45.12434" lon="2.61828">
        <ele>1609.3842773438</ele>
        <time>2011-06-15T10:28:55Z</time>
      </trkpt>
      <trkpt lat="45.12434" lon="2.61833">
        <ele>1609.8647460938</ele>
        <time>2011-06-15T10:29:19Z</time>
      </trkpt>
      <trkpt lat="45.12435" lon="2.61846">
        <ele>1607.9423828125</ele>
        <time>2011-06-15T10:29:37Z</time>
      </trkpt>
      <trkpt lat="45.12435" lon="2.61852">
        <ele>1606.9809570312</ele>
        <time>2011-06-15T10:30:00Z</time>
      </trkpt>
      <trkpt lat="45.12438" lon="2.61859">
        <ele>1605.5390625</ele>
        <time>2011-06-15T10:30:19Z</time>
      </trkpt>
      <trkpt lat="45.12442" lon="2.61865">
        <ele>1603.6164550781</ele>
        <time>2011-06-15T10:30:40Z</time>
      </trkpt>
      <trkpt lat="45.12445" lon="2.61873">
        <ele>1601.6938476562</ele>
        <time>2011-06-15T10:31:05Z</time>
      </trkpt>
      <trkpt lat="45.12447" lon="2.61879">
        <ele>1598.8098144531</ele>
        <time>2011-06-15T10:31:38Z</time>
      </trkpt>
      <trkpt lat="45.12446" lon="2.61894">
        <ele>1596.8872070312</ele>
        <time>2011-06-15T10:31:56Z</time>
      </trkpt>
      <trkpt lat="45.12448" lon="2.6191">
        <ele>1595.4450683594</ele>
        <time>2011-06-15T10:32:18Z</time>
      </trkpt>
      <trkpt lat="45.12448" lon="2.61924">
        <ele>1594.4836425781</ele>
        <time>2011-06-15T10:32:41Z</time>
      </trkpt>
      <trkpt lat="45.12445" lon="2.61946">
        <ele>1593.0417480469</ele>
        <time>2011-06-15T10:33:12Z</time>
      </trkpt>
      <trkpt lat="45.12445" lon="2.61962">
        <ele>1592.5612792969</ele>
        <time>2011-06-15T10:33:41Z</time>
      </trkpt>
      <trkpt lat="45.12447" lon="2.61967">
        <ele>1593.0417480469</ele>
        <time>2011-06-15T10:34:07Z</time>
      </trkpt>
      <trkpt lat="45.12448" lon="2.61967">
        <ele>1593.5224609375</ele>
        <time>2011-06-15T10:34:47Z</time>
      </trkpt>
      <trkpt lat="45.12447" lon="2.61965">
        <ele>1593.0417480469</ele>
        <time>2011-06-15T10:36:03Z</time>
      </trkpt>
      <trkpt lat="45.12447" lon="2.61966">
        <ele>1593.0417480469</ele>
        <time>2011-06-15T10:37:55Z</time>
      </trkpt>
      <trkpt lat="45.12447" lon="2.6197">
        <ele>1593.5224609375</ele>
        <time>2011-06-15T10:38:26Z</time>
      </trkpt>
      <trkpt lat="45.12447" lon="2.6197">
        <ele>1594.4836425781</ele>
        <time>2011-06-15T10:38:31Z</time>
      </trkpt>
      <trkpt lat="45.12445" lon="2.61976">
        <ele>1593.0417480469</ele>
        <time>2011-06-15T10:38:55Z</time>
      </trkpt>
      <trkpt lat="45.12443" lon="2.61987">
        <ele>1591.119140625</ele>
        <time>2011-06-15T10:39:17Z</time>
      </trkpt>
      <trkpt lat="45.12444" lon="2.62004">
        <ele>1589.1965332031</ele>
        <time>2011-06-15T10:39:40Z</time>
      </trkpt>
      <trkpt lat="45.12445" lon="2.62012">
        <ele>1588.7160644531</ele>
        <time>2011-06-15T10:40:04Z</time>
      </trkpt>
      <trkpt lat="45.12446" lon="2.62026">
        <ele>1587.2739257812</ele>
        <time>2011-06-15T10:40:22Z</time>
      </trkpt>
      <trkpt lat="45.12444" lon="2.62051">
        <ele>1586.7932128906</ele>
        <time>2011-06-15T10:40:45Z</time>
      </trkpt>
      <trkpt lat="45.12441" lon="2.62066">
        <ele>1587.7546386719</ele>
        <time>2011-06-15T10:41:02Z</time>
      </trkpt>
      <trkpt lat="45.12441" lon="2.6209">
        <ele>1587.7546386719</ele>
        <time>2011-06-15T10:41:23Z</time>
      </trkpt>
      <trkpt lat="45.12442" lon="2.6212">
        <ele>1587.7546386719</ele>
        <time>2011-06-15T10:41:47Z</time>
      </trkpt>
      <trkpt lat="45.12443" lon="2.62136">
        <ele>1587.7546386719</ele>
        <time>2011-06-15T10:42:06Z</time>
      </trkpt>
      <trkpt lat="45.12439" lon="2.62158">
        <ele>1586.7932128906</ele>
        <time>2011-06-15T10:42:27Z</time>
      </trkpt>
      <trkpt lat="45.12435" lon="2.62179">
        <ele>1585.83203125</ele>
        <time>2011-06-15T10:42:48Z</time>
      </trkpt>
      <trkpt lat="45.12431" lon="2.62194">
        <ele>1583.9094238281</ele>
        <time>2011-06-15T10:43:06Z</time>
      </trkpt>
      <trkpt lat="45.12433" lon="2.6222">
        <ele>1582.4675292969</ele>
        <time>2011-06-15T10:43:28Z</time>
      </trkpt>
      <trkpt lat="45.12434" lon="2.62239">
        <ele>1583.4287109375</ele>
        <time>2011-06-15T10:43:46Z</time>
      </trkpt>
      <trkpt lat="45.12429" lon="2.62256">
        <ele>1583.9094238281</ele>
        <time>2011-06-15T10:44:04Z</time>
      </trkpt>
      <trkpt lat="45.12426" lon="2.62278">
        <ele>1582.9479980469</ele>
        <time>2011-06-15T10:44:23Z</time>
      </trkpt>
      <trkpt lat="45.12426" lon="2.62287">
        <ele>1582.9479980469</ele>
        <time>2011-06-15T10:44:43Z</time>
      </trkpt>
      <trkpt lat="45.12425" lon="2.62307">
        <ele>1582.4675292969</ele>
        <time>2011-06-15T10:45:04Z</time>
      </trkpt>
      <trkpt lat="45.12425" lon="2.62329">
        <ele>1581.5061035156</ele>
        <time>2011-06-15T10:45:23Z</time>
      </trkpt>
      <trkpt lat="45.12426" lon="2.62351">
        <ele>1581.9868164062</ele>
        <time>2011-06-15T10:45:43Z</time>
      </trkpt>
      <trkpt lat="45.12424" lon="2.62381">
        <ele>1581.0256347656</ele>
        <time>2011-06-15T10:46:08Z</time>
      </trkpt>
      <trkpt lat="45.12426" lon="2.6239">
        <ele>1581.9868164062</ele>
        <time>2011-06-15T10:46:21Z</time>
      </trkpt>
      <trkpt lat="45.12427" lon="2.62407">
        <ele>1581.5061035156</ele>
        <time>2011-06-15T10:46:40Z</time>
      </trkpt>
      <trkpt lat="45.12426" lon="2.62421">
        <ele>1581.5061035156</ele>
        <time>2011-06-15T10:47:09Z</time>
      </trkpt>
      <trkpt lat="45.12429" lon="2.62425">
        <ele>1581.9868164062</ele>
        <time>2011-06-15T10:47:24Z</time>
      </trkpt>
      <trkpt lat="45.12432" lon="2.62425">
        <ele>1581.9868164062</ele>
        <time>2011-06-15T10:47:52Z</time>
      </trkpt>
      <trkpt lat="45.12434" lon="2.62433">
        <ele>1581.5061035156</ele>
        <time>2011-06-15T10:48:12Z</time>
      </trkpt>
      <trkpt lat="45.12443" lon="2.62448">
        <ele>1582.4675292969</ele>
        <time>2011-06-15T10:48:33Z</time>
      </trkpt>
      <trkpt lat="45.12452" lon="2.62462">
        <ele>1583.4287109375</ele>
        <time>2011-06-15T10:48:57Z</time>
      </trkpt>
      <trkpt lat="45.12456" lon="2.62482">
        <ele>1583.9094238281</ele>
        <time>2011-06-15T10:49:19Z</time>
      </trkpt>
      <trkpt lat="45.1246" lon="2.6249">
        <ele>1584.8708496094</ele>
        <time>2011-06-15T10:49:42Z</time>
      </trkpt>
      <trkpt lat="45.12467" lon="2.62479">
        <ele>1584.8708496094</ele>
        <time>2011-06-15T10:50:23Z</time>
      </trkpt>
      <trkpt lat="45.12464" lon="2.62481">
        <ele>1585.3513183594</ele>
        <time>2011-06-15T10:54:57Z</time>
      </trkpt>
      <trkpt lat="45.12448" lon="2.62489">
        <ele>1585.83203125</ele>
        <time>2011-06-15T11:03:46Z</time>
      </trkpt>
      <trkpt lat="45.12451" lon="2.6249">
        <ele>1585.83203125</ele>
        <time>2011-06-15T11:04:14Z</time>
      </trkpt>
      <trkpt lat="45.12451" lon="2.6249">
        <ele>1585.83203125</ele>
        <time>2011-06-15T11:05:28Z</time>
      </trkpt>
      <trkpt lat="45.12455" lon="2.6249">
        <ele>1585.83203125</ele>
        <time>2011-06-15T11:06:24Z</time>
      </trkpt>
      <trkpt lat="45.12459" lon="2.62485">
        <ele>1587.7546386719</ele>
        <time>2011-06-15T11:21:09Z</time>
      </trkpt>
      <trkpt lat="45.12458" lon="2.62484">
        <ele>1588.2353515625</ele>
        <time>2011-06-15T11:21:28Z</time>
      </trkpt>
      <trkpt lat="45.12463" lon="2.62488">
        <ele>1588.7160644531</ele>
        <time>2011-06-15T11:33:18Z</time>
      </trkpt>
      <trkpt lat="45.12467" lon="2.62493">
        <ele>1590.6384277344</ele>
        <time>2011-06-15T11:33:38Z</time>
      </trkpt>
      <trkpt lat="45.12469" lon="2.62495">
        <ele>1592.0805664062</ele>
        <time>2011-06-15T11:33:51Z</time>
      </trkpt>
      <trkpt lat="45.12476" lon="2.62496">
        <ele>1593.5224609375</ele>
        <time>2011-06-15T11:34:11Z</time>
      </trkpt>
      <trkpt lat="45.1248" lon="2.62497">
        <ele>1592.5612792969</ele>
        <time>2011-06-15T11:34:29Z</time>
      </trkpt>
      <trkpt lat="45.12491" lon="2.62506">
        <ele>1589.1965332031</ele>
        <time>2011-06-15T11:34:53Z</time>
      </trkpt>
      <trkpt lat="45.12489" lon="2.62513">
        <ele>1587.7546386719</ele>
        <time>2011-06-15T11:35:07Z</time>
      </trkpt>
      <trkpt lat="45.12503" lon="2.62519">
        <ele>1583.9094238281</ele>
        <time>2011-06-15T11:35:27Z</time>
      </trkpt>
      <trkpt lat="45.12503" lon="2.62527">
        <ele>1582.4675292969</ele>
        <time>2011-06-15T11:35:52Z</time>
      </trkpt>
      <trkpt lat="45.12513" lon="2.62535">
        <ele>1581.0256347656</ele>
        <time>2011-06-15T11:36:23Z</time>
      </trkpt>
      <trkpt lat="45.12524" lon="2.62556">
        <ele>1579.5832519531</ele>
        <time>2011-06-15T11:36:48Z</time>
      </trkpt>
      <trkpt lat="45.12526" lon="2.62577">
        <ele>1577.6606445312</ele>
        <time>2011-06-15T11:37:16Z</time>
      </trkpt>
      <trkpt lat="45.1252" lon="2.62604">
        <ele>1577.6606445312</ele>
        <time>2011-06-15T11:37:44Z</time>
      </trkpt>
      <trkpt lat="45.12516" lon="2.6262">
        <ele>1576.21875</ele>
        <time>2011-06-15T11:38:09Z</time>
      </trkpt>
      <trkpt lat="45.12515" lon="2.62636">
        <ele>1574.2961425781</ele>
        <time>2011-06-15T11:38:27Z</time>
      </trkpt>
      <trkpt lat="45.12513" lon="2.6265">
        <ele>1573.8154296875</ele>
        <time>2011-06-15T11:38:49Z</time>
      </trkpt>
      <trkpt lat="45.12512" lon="2.62665">
        <ele>1573.8154296875</ele>
        <time>2011-06-15T11:39:16Z</time>
      </trkpt>
      <trkpt lat="45.12505" lon="2.62671">
        <ele>1575.7380371094</ele>
        <time>2011-06-15T11:39:34Z</time>
      </trkpt>
      <trkpt lat="45.12497" lon="2.62676">
        <ele>1578.1413574219</ele>
        <time>2011-06-15T11:39:58Z</time>
      </trkpt>
      <trkpt lat="45.12493" lon="2.62676">
        <ele>1579.1025390625</ele>
        <time>2011-06-15T11:40:23Z</time>
      </trkpt>
      <trkpt lat="45.12487" lon="2.62685">
        <ele>1577.1801757812</ele>
        <time>2011-06-15T11:40:54Z</time>
      </trkpt>
      <trkpt lat="45.12486" lon="2.6271">
        <ele>1576.21875</ele>
        <time>2011-06-15T11:41:21Z</time>
      </trkpt>
      <trkpt lat="45.12481" lon="2.62727">
        <ele>1574.7768554688</ele>
        <time>2011-06-15T11:41:49Z</time>
      </trkpt>
      <trkpt lat="45.1248" lon="2.62738">
        <ele>1576.21875</ele>
        <time>2011-06-15T11:42:07Z</time>
      </trkpt>
      <trkpt lat="45.12482" lon="2.6275">
        <ele>1578.1413574219</ele>
        <time>2011-06-15T11:42:32Z</time>
      </trkpt>
      <trkpt lat="45.12479" lon="2.62772">
        <ele>1581.5061035156</ele>
        <time>2011-06-15T11:42:57Z</time>
      </trkpt>
      <trkpt lat="45.12477" lon="2.62788">
        <ele>1584.3901367188</ele>
        <time>2011-06-15T11:43:19Z</time>
      </trkpt>
      <trkpt lat="45.12476" lon="2.62798">
        <ele>1586.3127441406</ele>
        <time>2011-06-15T11:43:34Z</time>
      </trkpt>
      <trkpt lat="45.12473" lon="2.62806">
        <ele>1587.2739257812</ele>
        <time>2011-06-15T11:44:02Z</time>
      </trkpt>
      <trkpt lat="45.1247" lon="2.62823">
        <ele>1589.6772460938</ele>
        <time>2011-06-15T11:44:19Z</time>
      </trkpt>
      <trkpt lat="45.12465" lon="2.62843">
        <ele>1591.119140625</ele>
        <time>2011-06-15T11:44:43Z</time>
      </trkpt>
      <trkpt lat="45.12462" lon="2.62852">
        <ele>1591.119140625</ele>
        <time>2011-06-15T11:45:10Z</time>
      </trkpt>
      <trkpt lat="45.12461" lon="2.6286">
        <ele>1593.0417480469</ele>
        <time>2011-06-15T11:45:24Z</time>
      </trkpt>
      <trkpt lat="45.12458" lon="2.62866">
        <ele>1594.4836425781</ele>
        <time>2011-06-15T11:45:39Z</time>
      </trkpt>
      <trkpt lat="45.12454" lon="2.62875">
        <ele>1595.92578125</ele>
        <time>2011-06-15T11:46:07Z</time>
      </trkpt>
      <trkpt lat="45.12449" lon="2.62893">
        <ele>1597.3679199219</ele>
        <time>2011-06-15T11:46:25Z</time>
      </trkpt>
      <trkpt lat="45.12449" lon="2.62903">
        <ele>1599.7712402344</ele>
        <time>2011-06-15T11:46:41Z</time>
      </trkpt>
      <trkpt lat="45.12447" lon="2.62915">
        <ele>1602.6550292969</ele>
        <time>2011-06-15T11:47:00Z</time>
      </trkpt>
      <trkpt lat="45.12445" lon="2.62924">
        <ele>1603.1357421875</ele>
        <time>2011-06-15T11:47:35Z</time>
      </trkpt>
      <trkpt lat="45.1244" lon="2.62931">
        <ele>1604.5776367188</ele>
        <time>2011-06-15T11:49:35Z</time>
      </trkpt>
      <trkpt lat="45.12437" lon="2.62943">
        <ele>1606.9809570312</ele>
        <time>2011-06-15T11:50:03Z</time>
      </trkpt>
      <trkpt lat="45.12433" lon="2.62964">
        <ele>1608.4228515625</ele>
        <time>2011-06-15T11:50:30Z</time>
      </trkpt>
      <trkpt lat="45.12428" lon="2.62978">
        <ele>1610.826171875</ele>
        <time>2011-06-15T11:50:58Z</time>
      </trkpt>
      <trkpt lat="45.12418" lon="2.63007">
        <ele>1612.7490234375</ele>
        <time>2011-06-15T11:51:38Z</time>
      </trkpt>
      <trkpt lat="45.12409" lon="2.63029">
        <ele>1611.7875976562</ele>
        <time>2011-06-15T11:52:02Z</time>
      </trkpt>
      <trkpt lat="45.12396" lon="2.63047">
        <ele>1613.2297363281</ele>
        <time>2011-06-15T11:52:33Z</time>
      </trkpt>
      <trkpt lat="45.12383" lon="2.6306">
        <ele>1614.1909179688</ele>
        <time>2011-06-15T11:52:55Z</time>
      </trkpt>
      <trkpt lat="45.12375" lon="2.6307">
        <ele>1615.6330566406</ele>
        <time>2011-06-15T11:53:26Z</time>
      </trkpt>
      <trkpt lat="45.12357" lon="2.63087">
        <ele>1615.6330566406</ele>
        <time>2011-06-15T11:53:56Z</time>
      </trkpt>
      <trkpt lat="45.1234" lon="2.63106">
        <ele>1614.6716308594</ele>
        <time>2011-06-15T11:54:25Z</time>
      </trkpt>
      <trkpt lat="45.12325" lon="2.63124">
        <ele>1613.7102050781</ele>
        <time>2011-06-15T11:54:50Z</time>
      </trkpt>
      <trkpt lat="45.1231" lon="2.63138">
        <ele>1613.2297363281</ele>
        <time>2011-06-15T11:55:11Z</time>
      </trkpt>
      <trkpt lat="45.12301" lon="2.63143">
        <ele>1613.2297363281</ele>
        <time>2011-06-15T11:55:28Z</time>
      </trkpt>
      <trkpt lat="45.12293" lon="2.63148">
        <ele>1613.2297363281</ele>
        <time>2011-06-15T11:55:37Z</time>
      </trkpt>
      <trkpt lat="45.12287" lon="2.63152">
        <ele>1612.7490234375</ele>
        <time>2011-06-15T11:55:50Z</time>
      </trkpt>
      <trkpt lat="45.12274" lon="2.63156">
        <ele>1611.7875976562</ele>
        <time>2011-06-15T11:56:11Z</time>
      </trkpt>
      <trkpt lat="45.12266" lon="2.6316">
        <ele>1611.7875976562</ele>
        <time>2011-06-15T11:56:22Z</time>
      </trkpt>
      <trkpt lat="45.12255" lon="2.63161">
        <ele>1612.2683105469</ele>
        <time>2011-06-15T11:56:42Z</time>
      </trkpt>
      <trkpt lat="45.1225" lon="2.63165">
        <ele>1611.7875976562</ele>
        <time>2011-06-15T11:57:14Z</time>
      </trkpt>
      <trkpt lat="45.12245" lon="2.63176">
        <ele>1609.8647460938</ele>
        <time>2011-06-15T11:57:48Z</time>
      </trkpt>
      <trkpt lat="45.12241" lon="2.63189">
        <ele>1607.9423828125</ele>
        <time>2011-06-15T11:58:20Z</time>
      </trkpt>
      <trkpt lat="45.12246" lon="2.63204">
        <ele>1604.5776367188</ele>
        <time>2011-06-15T11:58:42Z</time>
      </trkpt>
      <trkpt lat="45.12248" lon="2.63232">
        <ele>1602.1743164062</ele>
        <time>2011-06-15T11:59:13Z</time>
      </trkpt>
      <trkpt lat="45.12249" lon="2.63254">
        <ele>1599.7712402344</ele>
        <time>2011-06-15T11:59:43Z</time>
      </trkpt>
      <trkpt lat="45.12248" lon="2.63272">
        <ele>1597.3679199219</ele>
        <time>2011-06-15T12:00:06Z</time>
      </trkpt>
      <trkpt lat="45.12246" lon="2.63287">
        <ele>1595.4450683594</ele>
        <time>2011-06-15T12:00:25Z</time>
      </trkpt>
      <trkpt lat="45.12243" lon="2.63304">
        <ele>1594.9643554688</ele>
        <time>2011-06-15T12:00:58Z</time>
      </trkpt>
      <trkpt lat="45.12246" lon="2.63308">
        <ele>1593.5224609375</ele>
        <time>2011-06-15T12:01:18Z</time>
      </trkpt>
      <trkpt lat="45.12242" lon="2.6332">
        <ele>1590.1579589844</ele>
        <time>2011-06-15T12:01:38Z</time>
      </trkpt>
      <trkpt lat="45.12237" lon="2.63321">
        <ele>1586.7932128906</ele>
        <time>2011-06-15T12:02:12Z</time>
      </trkpt>
      <trkpt lat="45.1223" lon="2.63332">
        <ele>1583.9094238281</ele>
        <time>2011-06-15T12:02:42Z</time>
      </trkpt>
      <trkpt lat="45.12224" lon="2.63337">
        <ele>1580.544921875</ele>
        <time>2011-06-15T12:02:59Z</time>
      </trkpt>
      <trkpt lat="45.1222" lon="2.63348">
        <ele>1576.6994628906</ele>
        <time>2011-06-15T12:03:19Z</time>
      </trkpt>
      <trkpt lat="45.1222" lon="2.63349">
        <ele>1576.6994628906</ele>
        <time>2011-06-15T12:03:20Z</time>
      </trkpt>
      <trkpt lat="45.12214" lon="2.63357">
        <ele>1573.8154296875</ele>
        <time>2011-06-15T12:03:43Z</time>
      </trkpt>
      <trkpt lat="45.12211" lon="2.63367">
        <ele>1569.9702148438</ele>
        <time>2011-06-15T12:04:10Z</time>
      </trkpt>
      <trkpt lat="45.12207" lon="2.63378">
        <ele>1567.0864257812</ele>
        <time>2011-06-15T12:04:34Z</time>
      </trkpt>
      <trkpt lat="45.12207" lon="2.63388">
        <ele>1564.6831054688</ele>
        <time>2011-06-15T12:04:48Z</time>
      </trkpt>
      <trkpt lat="45.12206" lon="2.63398">
        <ele>1562.7602539062</ele>
        <time>2011-06-15T12:05:12Z</time>
      </trkpt>
      <trkpt lat="45.12193" lon="2.63416">
        <ele>1559.8762207031</ele>
        <time>2011-06-15T12:05:45Z</time>
      </trkpt>
      <trkpt lat="45.12184" lon="2.63421">
        <ele>1558.4343261719</ele>
        <time>2011-06-15T12:06:26Z</time>
      </trkpt>
      <trkpt lat="45.12175" lon="2.63441">
        <ele>1555.5505371094</ele>
        <time>2011-06-15T12:06:52Z</time>
      </trkpt>
      <trkpt lat="45.12162" lon="2.6346">
        <ele>1554.1086425781</ele>
        <time>2011-06-15T12:07:11Z</time>
      </trkpt>
      <trkpt lat="45.12159" lon="2.63482">
        <ele>1552.6665039062</ele>
        <time>2011-06-15T12:07:29Z</time>
      </trkpt>
      <trkpt lat="45.1215" lon="2.63503">
        <ele>1552.1857910156</ele>
        <time>2011-06-15T12:07:48Z</time>
      </trkpt>
      <trkpt lat="45.12143" lon="2.63522">
        <ele>1552.6665039062</ele>
        <time>2011-06-15T12:08:07Z</time>
      </trkpt>
      <trkpt lat="45.12134" lon="2.63534">
        <ele>1552.6665039062</ele>
        <time>2011-06-15T12:08:21Z</time>
      </trkpt>
      <trkpt lat="45.12119" lon="2.63555">
        <ele>1552.6665039062</ele>
        <time>2011-06-15T12:08:43Z</time>
      </trkpt>
      <trkpt lat="45.12114" lon="2.63564">
        <ele>1552.6665039062</ele>
        <time>2011-06-15T12:09:12Z</time>
      </trkpt>
      <trkpt lat="45.12095" lon="2.63593">
        <ele>1550.2634277344</ele>
        <time>2011-06-15T12:09:45Z</time>
      </trkpt>
      <trkpt lat="45.12084" lon="2.63611">
        <ele>1548.8212890625</ele>
        <time>2011-06-15T12:10:09Z</time>
      </trkpt>
      <trkpt lat="45.12081" lon="2.63619">
        <ele>1548.8212890625</ele>
        <time>2011-06-15T12:10:15Z</time>
      </trkpt>
      <trkpt lat="45.12078" lon="2.63626">
        <ele>1547.8598632812</ele>
        <time>2011-06-15T12:10:21Z</time>
      </trkpt>
      <trkpt lat="45.12072" lon="2.63642">
        <ele>1545.4565429688</ele>
        <time>2011-06-15T12:10:37Z</time>
      </trkpt>
      <trkpt lat="45.1206" lon="2.63663">
        <ele>1543.0532226562</ele>
        <time>2011-06-15T12:11:00Z</time>
      </trkpt>
      <trkpt lat="45.12047" lon="2.63679">
        <ele>1540.6499023438</ele>
        <time>2011-06-15T12:11:25Z</time>
      </trkpt>
      <trkpt lat="45.12032" lon="2.63702">
        <ele>1537.7661132812</ele>
        <time>2011-06-15T12:11:53Z</time>
      </trkpt>
      <trkpt lat="45.12018" lon="2.63726">
        <ele>1536.8046875</ele>
        <time>2011-06-15T12:12:17Z</time>
      </trkpt>
      <trkpt lat="45.1201" lon="2.63744">
        <ele>1536.32421875</ele>
        <time>2011-06-15T12:12:41Z</time>
      </trkpt>
      <trkpt lat="45.11994" lon="2.63762">
        <ele>1535.3627929688</ele>
        <time>2011-06-15T12:13:05Z</time>
      </trkpt>
      <trkpt lat="45.1198" lon="2.63782">
        <ele>1534.8823242188</ele>
        <time>2011-06-15T12:13:35Z</time>
      </trkpt>
      <trkpt lat="45.11971" lon="2.63801">
        <ele>1534.8823242188</ele>
        <time>2011-06-15T12:13:54Z</time>
      </trkpt>
      <trkpt lat="45.1196" lon="2.63822">
        <ele>1535.8435058594</ele>
        <time>2011-06-15T12:14:17Z</time>
      </trkpt>
      <trkpt lat="45.1195" lon="2.63831">
        <ele>1534.4016113281</ele>
        <time>2011-06-15T12:14:33Z</time>
      </trkpt>
      <trkpt lat="45.11933" lon="2.63844">
        <ele>1531.998046875</ele>
        <time>2011-06-15T12:15:00Z</time>
      </trkpt>
      <trkpt lat="45.11915" lon="2.63859">
        <ele>1529.5947265625</ele>
        <time>2011-06-15T12:15:30Z</time>
      </trkpt>
      <trkpt lat="45.11905" lon="2.63871">
        <ele>1528.1528320312</ele>
        <time>2011-06-15T12:15:48Z</time>
      </trkpt>
      <trkpt lat="45.11895" lon="2.63885">
        <ele>1526.2302246094</ele>
        <time>2011-06-15T12:16:10Z</time>
      </trkpt>
      <trkpt lat="45.11879" lon="2.63906">
        <ele>1524.3076171875</ele>
        <time>2011-06-15T12:16:39Z</time>
      </trkpt>
      <trkpt lat="45.1186" lon="2.63924">
        <ele>1522.8657226562</ele>
        <time>2011-06-15T12:17:08Z</time>
      </trkpt>
      <trkpt lat="45.11843" lon="2.63944">
        <ele>1520.4624023438</ele>
        <time>2011-06-15T12:17:41Z</time>
      </trkpt>
      <trkpt lat="45.11833" lon="2.63953">
        <ele>1518.5397949219</ele>
        <time>2011-06-15T12:18:02Z</time>
      </trkpt>
      <trkpt lat="45.11814" lon="2.63969">
        <ele>1516.6171875</ele>
        <time>2011-06-15T12:18:34Z</time>
      </trkpt>
      <trkpt lat="45.11807" lon="2.63984">
        <ele>1515.6557617188</ele>
        <time>2011-06-15T12:18:53Z</time>
      </trkpt>
      <trkpt lat="45.11788" lon="2.6399">
        <ele>1513.7329101562</ele>
        <time>2011-06-15T12:19:16Z</time>
      </trkpt>
      <trkpt lat="45.11783" lon="2.63993">
        <ele>1513.2524414062</ele>
        <time>2011-06-15T12:19:25Z</time>
      </trkpt>
      <trkpt lat="45.11781" lon="2.63994">
        <ele>1513.2524414062</ele>
        <time>2011-06-15T12:19:28Z</time>
      </trkpt>
      <trkpt lat="45.11769" lon="2.64002">
        <ele>1511.810546875</ele>
        <time>2011-06-15T12:19:49Z</time>
      </trkpt>
      <trkpt lat="45.11754" lon="2.6401">
        <ele>1508.9265136719</ele>
        <time>2011-06-15T12:20:11Z</time>
      </trkpt>
      <trkpt lat="45.11735" lon="2.64013">
        <ele>1507.4846191406</ele>
        <time>2011-06-15T12:20:34Z</time>
      </trkpt>
      <trkpt lat="45.11719" lon="2.64016">
        <ele>1505.5620117188</ele>
        <time>2011-06-15T12:20:58Z</time>
      </trkpt>
      <trkpt lat="45.11705" lon="2.64019">
        <ele>1505.0812988281</ele>
        <time>2011-06-15T12:21:14Z</time>
      </trkpt>
      <trkpt lat="45.11696" lon="2.6402">
        <ele>1505.5620117188</ele>
        <time>2011-06-15T12:21:32Z</time>
      </trkpt>
      <trkpt lat="45.11687" lon="2.64022">
        <ele>1505.5620117188</ele>
        <time>2011-06-15T12:21:49Z</time>
      </trkpt>
      <trkpt lat="45.11678" lon="2.64027">
        <ele>1506.0424804688</ele>
        <time>2011-06-15T12:22:10Z</time>
      </trkpt>
      <trkpt lat="45.11676" lon="2.64027">
        <ele>1505.5620117188</ele>
        <time>2011-06-15T12:23:09Z</time>
      </trkpt>
      <trkpt lat="45.11673" lon="2.64028">
        <ele>1506.5231933594</ele>
        <time>2011-06-15T12:24:55Z</time>
      </trkpt>
      <trkpt lat="45.11673" lon="2.64028">
        <ele>1506.0424804688</ele>
        <time>2011-06-15T12:25:19Z</time>
      </trkpt>
      <trkpt lat="45.11674" lon="2.64027">
        <ele>1506.0424804688</ele>
        <time>2011-06-15T12:25:33Z</time>
      </trkpt>
      <trkpt lat="45.11672" lon="2.64025">
        <ele>1506.5231933594</ele>
        <time>2011-06-15T12:26:35Z</time>
      </trkpt>
      <trkpt lat="45.11668" lon="2.64026">
        <ele>1506.0424804688</ele>
        <time>2011-06-15T12:27:20Z</time>
      </trkpt>
      <trkpt lat="45.11655" lon="2.64029">
        <ele>1505.5620117188</ele>
        <time>2011-06-15T12:27:35Z</time>
      </trkpt>
      <trkpt lat="45.11643" lon="2.64036">
        <ele>1505.5620117188</ele>
        <time>2011-06-15T12:27:51Z</time>
      </trkpt>
      <trkpt lat="45.11635" lon="2.64037">
        <ele>1506.0424804688</ele>
        <time>2011-06-15T12:27:59Z</time>
      </trkpt>
      <trkpt lat="45.1162" lon="2.64038">
        <ele>1506.5231933594</ele>
        <time>2011-06-15T12:28:13Z</time>
      </trkpt>
      <trkpt lat="45.1161" lon="2.64042">
        <ele>1507.00390625</ele>
        <time>2011-06-15T12:28:23Z</time>
      </trkpt>
      <trkpt lat="45.11603" lon="2.64044">
        <ele>1507.4846191406</ele>
        <time>2011-06-15T12:28:35Z</time>
      </trkpt>
      <trkpt lat="45.11587" lon="2.64048">
        <ele>1507.9653320312</ele>
        <time>2011-06-15T12:28:50Z</time>
      </trkpt>
      <trkpt lat="45.11578" lon="2.6405">
        <ele>1507.9653320312</ele>
        <time>2011-06-15T12:29:03Z</time>
      </trkpt>
      <trkpt lat="45.11559" lon="2.64055">
        <ele>1508.4458007812</ele>
        <time>2011-06-15T12:29:21Z</time>
      </trkpt>
      <trkpt lat="45.11538" lon="2.64063">
        <ele>1508.4458007812</ele>
        <time>2011-06-15T12:29:44Z</time>
      </trkpt>
      <trkpt lat="45.11526" lon="2.64067">
        <ele>1511.3298339844</ele>
        <time>2011-06-15T12:30:07Z</time>
      </trkpt>
      <trkpt lat="45.11516" lon="2.6407">
        <ele>1513.2524414062</ele>
        <time>2011-06-15T12:30:27Z</time>
      </trkpt>
      <trkpt lat="45.1151" lon="2.64074">
        <ele>1514.6943359375</ele>
        <time>2011-06-15T12:30:42Z</time>
      </trkpt>
      <trkpt lat="45.115" lon="2.64076">
        <ele>1515.1750488281</ele>
        <time>2011-06-15T12:30:57Z</time>
      </trkpt>
      <trkpt lat="45.11491" lon="2.64077">
        <ele>1516.6171875</ele>
        <time>2011-06-15T12:31:16Z</time>
      </trkpt>
      <trkpt lat="45.11486" lon="2.6408">
        <ele>1518.0590820312</ele>
        <time>2011-06-15T12:31:34Z</time>
      </trkpt>
      <trkpt lat="45.11478" lon="2.64078">
        <ele>1517.5783691406</ele>
        <time>2011-06-15T12:31:59Z</time>
      </trkpt>
      <trkpt lat="45.11466" lon="2.64081">
        <ele>1518.0590820312</ele>
        <time>2011-06-15T12:32:14Z</time>
      </trkpt>
      <trkpt lat="45.11459" lon="2.64082">
        <ele>1518.5397949219</ele>
        <time>2011-06-15T12:32:29Z</time>
      </trkpt>
      <trkpt lat="45.11457" lon="2.6408">
        <ele>1518.5397949219</ele>
        <time>2011-06-15T12:32:33Z</time>
      </trkpt>
      <trkpt lat="45.1145" lon="2.64077">
        <ele>1518.5397949219</ele>
        <time>2011-06-15T12:32:47Z</time>
      </trkpt>
      <trkpt lat="45.11439" lon="2.64068">
        <ele>1518.0590820312</ele>
        <time>2011-06-15T12:33:06Z</time>
      </trkpt>
      <trkpt lat="45.11427" lon="2.6406">
        <ele>1519.0205078125</ele>
        <time>2011-06-15T12:33:22Z</time>
      </trkpt>
      <trkpt lat="45.11416" lon="2.64057">
        <ele>1518.5397949219</ele>
        <time>2011-06-15T12:33:37Z</time>
      </trkpt>
      <trkpt lat="45.11406" lon="2.6405">
        <ele>1517.0979003906</ele>
        <time>2011-06-15T12:33:54Z</time>
      </trkpt>
      <trkpt lat="45.11402" lon="2.64048">
        <ele>1517.0979003906</ele>
        <time>2011-06-15T12:34:00Z</time>
      </trkpt>
      <trkpt lat="45.11388" lon="2.64038">
        <ele>1517.5783691406</ele>
        <time>2011-06-15T12:34:18Z</time>
      </trkpt>
      <trkpt lat="45.11369" lon="2.64026">
        <ele>1517.0979003906</ele>
        <time>2011-06-15T12:34:43Z</time>
      </trkpt>
      <trkpt lat="45.11366" lon="2.64027">
        <ele>1518.0590820312</ele>
        <time>2011-06-15T12:34:49Z</time>
      </trkpt>
      <trkpt lat="45.11356" lon="2.64023">
        <ele>1517.5783691406</ele>
        <time>2011-06-15T12:34:57Z</time>
      </trkpt>
      <trkpt lat="45.11344" lon="2.64012">
        <ele>1519.0205078125</ele>
        <time>2011-06-15T12:35:14Z</time>
      </trkpt>
      <trkpt lat="45.11337" lon="2.64009">
        <ele>1519.0205078125</ele>
        <time>2011-06-15T12:35:27Z</time>
      </trkpt>
      <trkpt lat="45.11331" lon="2.64002">
        <ele>1518.5397949219</ele>
        <time>2011-06-15T12:35:40Z</time>
      </trkpt>
      <trkpt lat="45.11327" lon="2.63993">
        <ele>1517.5783691406</ele>
        <time>2011-06-15T12:35:57Z</time>
      </trkpt>
      <trkpt lat="45.11321" lon="2.6398">
        <ele>1515.1750488281</ele>
        <time>2011-06-15T12:36:16Z</time>
      </trkpt>
      <trkpt lat="45.11312" lon="2.63967">
        <ele>1515.6557617188</ele>
        <time>2011-06-15T12:36:36Z</time>
      </trkpt>
      <trkpt lat="45.11302" lon="2.63962">
        <ele>1518.0590820312</ele>
        <time>2011-06-15T12:36:54Z</time>
      </trkpt>
      <trkpt lat="45.11293" lon="2.63952">
        <ele>1519.5012207031</ele>
        <time>2011-06-15T12:37:10Z</time>
      </trkpt>
      <trkpt lat="45.11287" lon="2.63941">
        <ele>1519.5012207031</ele>
        <time>2011-06-15T12:37:24Z</time>
      </trkpt>
      <trkpt lat="45.11278" lon="2.63929">
        <ele>1518.0590820312</ele>
        <time>2011-06-15T12:37:42Z</time>
      </trkpt>
      <trkpt lat="45.11269" lon="2.63922">
        <ele>1517.0979003906</ele>
        <time>2011-06-15T12:37:55Z</time>
      </trkpt>
      <trkpt lat="45.11263" lon="2.63913">
        <ele>1518.0590820312</ele>
        <time>2011-06-15T12:38:08Z</time>
      </trkpt>
      <trkpt lat="45.11253" lon="2.63902">
        <ele>1519.0205078125</ele>
        <time>2011-06-15T12:38:25Z</time>
      </trkpt>
      <trkpt lat="45.11245" lon="2.63893">
        <ele>1519.9816894531</ele>
        <time>2011-06-15T12:38:38Z</time>
      </trkpt>
      <trkpt lat="45.11234" lon="2.63886">
        <ele>1521.4235839844</ele>
        <time>2011-06-15T12:38:53Z</time>
      </trkpt>
      <trkpt lat="45.11229" lon="2.63883">
        <ele>1523.3464355469</ele>
        <time>2011-06-15T12:39:08Z</time>
      </trkpt>
      <trkpt lat="45.11217" lon="2.63877">
        <ele>1523.3464355469</ele>
        <time>2011-06-15T12:39:24Z</time>
      </trkpt>
      <trkpt lat="45.11204" lon="2.63866">
        <ele>1525.7495117188</ele>
        <time>2011-06-15T12:39:47Z</time>
      </trkpt>
      <trkpt lat="45.11195" lon="2.63857">
        <ele>1527.1916503906</ele>
        <time>2011-06-15T12:40:02Z</time>
      </trkpt>
      <trkpt lat="45.11185" lon="2.63858">
        <ele>1527.6721191406</ele>
        <time>2011-06-15T12:40:17Z</time>
      </trkpt>
      <trkpt lat="45.11176" lon="2.63854">
        <ele>1527.6721191406</ele>
        <time>2011-06-15T12:40:33Z</time>
      </trkpt>
      <trkpt lat="45.11165" lon="2.63848">
        <ele>1529.1140136719</ele>
        <time>2011-06-15T12:40:49Z</time>
      </trkpt>
      <trkpt lat="45.11149" lon="2.63839">
        <ele>1529.1140136719</ele>
        <time>2011-06-15T12:41:12Z</time>
      </trkpt>
      <trkpt lat="45.11139" lon="2.63841">
        <ele>1530.5561523438</ele>
        <time>2011-06-15T12:41:30Z</time>
      </trkpt>
      <trkpt lat="45.11134" lon="2.63838">
        <ele>1531.998046875</ele>
        <time>2011-06-15T12:41:42Z</time>
      </trkpt>
      <trkpt lat="45.1113" lon="2.63837">
        <ele>1533.4401855469</ele>
        <time>2011-06-15T12:41:54Z</time>
      </trkpt>
      <trkpt lat="45.11128" lon="2.63834">
        <ele>1534.8823242188</ele>
        <time>2011-06-15T12:42:04Z</time>
      </trkpt>
      <trkpt lat="45.11123" lon="2.63829">
        <ele>1535.8435058594</ele>
        <time>2011-06-15T12:42:19Z</time>
      </trkpt>
      <trkpt lat="45.11118" lon="2.63826">
        <ele>1537.2854003906</ele>
        <time>2011-06-15T12:42:34Z</time>
      </trkpt>
      <trkpt lat="45.11112" lon="2.63824">
        <ele>1538.7275390625</ele>
        <time>2011-06-15T12:42:49Z</time>
      </trkpt>
      <trkpt lat="45.11105" lon="2.6382">
        <ele>1539.6887207031</ele>
        <time>2011-06-15T12:43:05Z</time>
      </trkpt>
      <trkpt lat="45.11099" lon="2.63817">
        <ele>1541.1306152344</ele>
        <time>2011-06-15T12:43:20Z</time>
      </trkpt>
      <trkpt lat="45.11088" lon="2.63814">
        <ele>1542.5727539062</ele>
        <time>2011-06-15T12:43:40Z</time>
      </trkpt>
      <trkpt lat="45.11081" lon="2.63811">
        <ele>1544.0146484375</ele>
        <time>2011-06-15T12:43:59Z</time>
      </trkpt>
      <trkpt lat="45.11075" lon="2.63806">
        <ele>1545.4565429688</ele>
        <time>2011-06-15T12:44:18Z</time>
      </trkpt>
      <trkpt lat="45.1107" lon="2.63802">
        <ele>1545.9372558594</ele>
        <time>2011-06-15T12:44:33Z</time>
      </trkpt>
      <trkpt lat="45.11067" lon="2.63795">
        <ele>1546.41796875</ele>
        <time>2011-06-15T12:44:49Z</time>
      </trkpt>
      <trkpt lat="45.11064" lon="2.63789">
        <ele>1546.8984375</ele>
        <time>2011-06-15T12:45:20Z</time>
      </trkpt>
      <trkpt lat="45.11058" lon="2.63782">
        <ele>1548.3405761719</ele>
        <time>2011-06-15T12:45:43Z</time>
      </trkpt>
      <trkpt lat="45.11051" lon="2.6378">
        <ele>1549.7827148438</ele>
        <time>2011-06-15T12:46:05Z</time>
      </trkpt>
      <trkpt lat="45.11047" lon="2.63773">
        <ele>1551.7053222656</ele>
        <time>2011-06-15T12:46:26Z</time>
      </trkpt>
      <trkpt lat="45.11043" lon="2.63767">
        <ele>1554.1086425781</ele>
        <time>2011-06-15T12:46:41Z</time>
      </trkpt>
      <trkpt lat="45.11037" lon="2.63762">
        <ele>1555.5505371094</ele>
        <time>2011-06-15T12:47:00Z</time>
      </trkpt>
      <trkpt lat="45.11034" lon="2.6376">
        <ele>1556.9924316406</ele>
        <time>2011-06-15T12:47:32Z</time>
      </trkpt>
      <trkpt lat="45.11029" lon="2.63758">
        <ele>1557.9538574219</ele>
        <time>2011-06-15T12:48:19Z</time>
      </trkpt>
      <trkpt lat="45.11021" lon="2.63759">
        <ele>1559.8762207031</ele>
        <time>2011-06-15T12:48:35Z</time>
      </trkpt>
      <trkpt lat="45.11013" lon="2.63768">
        <ele>1562.2795410156</ele>
        <time>2011-06-15T12:48:52Z</time>
      </trkpt>
      <trkpt lat="45.11009" lon="2.63769">
        <ele>1563.7214355469</ele>
        <time>2011-06-15T12:49:07Z</time>
      </trkpt>
      <trkpt lat="45.11006" lon="2.63771">
        <ele>1565.1638183594</ele>
        <time>2011-06-15T12:49:32Z</time>
      </trkpt>
      <trkpt lat="45.11004" lon="2.63775">
        <ele>1566.6057128906</ele>
        <time>2011-06-15T12:49:47Z</time>
      </trkpt>
      <trkpt lat="45.11002" lon="2.63776">
        <ele>1567.0864257812</ele>
        <time>2011-06-15T12:50:06Z</time>
      </trkpt>
      <trkpt lat="45.10998" lon="2.63785">
        <ele>1569.0090332031</ele>
        <time>2011-06-15T12:50:32Z</time>
      </trkpt>
      <trkpt lat="45.10997" lon="2.63787">
        <ele>1569.9702148438</ele>
        <time>2011-06-15T12:51:10Z</time>
      </trkpt>
      <trkpt lat="45.10993" lon="2.63792">
        <ele>1569.9702148438</ele>
        <time>2011-06-15T12:51:29Z</time>
      </trkpt>
      <trkpt lat="45.10989" lon="2.63797">
        <ele>1570.4509277344</ele>
        <time>2011-06-15T12:51:54Z</time>
      </trkpt>
      <trkpt lat="45.10989" lon="2.63805">
        <ele>1569.9702148438</ele>
        <time>2011-06-15T12:53:23Z</time>
      </trkpt>
      <trkpt lat="45.10988" lon="2.63804">
        <ele>1569.4897460938</ele>
        <time>2011-06-15T12:53:33Z</time>
      </trkpt>
      <trkpt lat="45.10988" lon="2.63805">
        <ele>1570.4509277344</ele>
        <time>2011-06-15T12:53:43Z</time>
      </trkpt>
      <trkpt lat="45.10988" lon="2.63809">
        <ele>1569.9702148438</ele>
        <time>2011-06-15T12:54:10Z</time>
      </trkpt>
      <trkpt lat="45.10989" lon="2.63817">
        <ele>1569.4897460938</ele>
        <time>2011-06-15T12:54:36Z</time>
      </trkpt>
      <trkpt lat="45.10989" lon="2.63835">
        <ele>1568.5283203125</ele>
        <time>2011-06-15T12:54:56Z</time>
      </trkpt>
      <trkpt lat="45.10987" lon="2.63849">
        <ele>1567.0864257812</ele>
        <time>2011-06-15T12:55:13Z</time>
      </trkpt>
      <trkpt lat="45.10987" lon="2.63858">
        <ele>1565.1638183594</ele>
        <time>2011-06-15T12:55:32Z</time>
      </trkpt>
      <trkpt lat="45.10989" lon="2.63864">
        <ele>1563.7214355469</ele>
        <time>2011-06-15T12:55:53Z</time>
      </trkpt>
      <trkpt lat="45.10986" lon="2.63871">
        <ele>1561.318359375</ele>
        <time>2011-06-15T12:56:10Z</time>
      </trkpt>
      <trkpt lat="45.10987" lon="2.63878">
        <ele>1560.8376464844</ele>
        <time>2011-06-15T12:56:29Z</time>
      </trkpt>
      <trkpt lat="45.10985" lon="2.63885">
        <ele>1559.3957519531</ele>
        <time>2011-06-15T12:56:44Z</time>
      </trkpt>
      <trkpt lat="45.10981" lon="2.63901">
        <ele>1557.9538574219</ele>
        <time>2011-06-15T12:57:07Z</time>
      </trkpt>
      <trkpt lat="45.10979" lon="2.63914">
        <ele>1556.51171875</ele>
        <time>2011-06-15T12:57:25Z</time>
      </trkpt>
      <trkpt lat="45.10972" lon="2.63929">
        <ele>1556.0310058594</ele>
        <time>2011-06-15T12:57:42Z</time>
      </trkpt>
      <trkpt lat="45.10968" lon="2.6395">
        <ele>1556.0310058594</ele>
        <time>2011-06-15T12:57:58Z</time>
      </trkpt>
      <trkpt lat="45.10964" lon="2.63962">
        <ele>1556.9924316406</ele>
        <time>2011-06-15T12:58:14Z</time>
      </trkpt>
      <trkpt lat="45.1096" lon="2.63978">
        <ele>1555.0698242188</ele>
        <time>2011-06-15T12:58:36Z</time>
      </trkpt>
      <trkpt lat="45.10957" lon="2.63996">
        <ele>1552.1857910156</ele>
        <time>2011-06-15T12:58:57Z</time>
      </trkpt>
      <trkpt lat="45.10951" lon="2.64024">
        <ele>1549.7827148438</ele>
        <time>2011-06-15T12:59:23Z</time>
      </trkpt>
      <trkpt lat="45.10948" lon="2.64039">
        <ele>1547.8598632812</ele>
        <time>2011-06-15T12:59:42Z</time>
      </trkpt>
      <trkpt lat="45.10945" lon="2.64052">
        <ele>1546.8984375</ele>
        <time>2011-06-15T12:59:57Z</time>
      </trkpt>
      <trkpt lat="45.10942" lon="2.64062">
        <ele>1545.9372558594</ele>
        <time>2011-06-15T13:00:14Z</time>
      </trkpt>
      <trkpt lat="45.10941" lon="2.64078">
        <ele>1546.8984375</ele>
        <time>2011-06-15T13:00:31Z</time>
      </trkpt>
      <trkpt lat="45.10941" lon="2.6408">
        <ele>1546.8984375</ele>
        <time>2011-06-15T13:00:32Z</time>
      </trkpt>
      <trkpt lat="45.10936" lon="2.64097">
        <ele>1545.9372558594</ele>
        <time>2011-06-15T13:00:51Z</time>
      </trkpt>
      <trkpt lat="45.10934" lon="2.64117">
        <ele>1546.41796875</ele>
        <time>2011-06-15T13:01:11Z</time>
      </trkpt>
      <trkpt lat="45.10929" lon="2.64137">
        <ele>1546.8984375</ele>
        <time>2011-06-15T13:01:30Z</time>
      </trkpt>
      <trkpt lat="45.10925" lon="2.64151">
        <ele>1545.4565429688</ele>
        <time>2011-06-15T13:01:48Z</time>
      </trkpt>
      <trkpt lat="45.10924" lon="2.64166">
        <ele>1545.4565429688</ele>
        <time>2011-06-15T13:02:06Z</time>
      </trkpt>
      <trkpt lat="45.1092" lon="2.64179">
        <ele>1544.4951171875</ele>
        <time>2011-06-15T13:02:22Z</time>
      </trkpt>
      <trkpt lat="45.10919" lon="2.6419">
        <ele>1544.4951171875</ele>
        <time>2011-06-15T13:02:33Z</time>
      </trkpt>
      <trkpt lat="45.10919" lon="2.64206">
        <ele>1544.0146484375</ele>
        <time>2011-06-15T13:02:47Z</time>
      </trkpt>
      <trkpt lat="45.10915" lon="2.64223">
        <ele>1543.0532226562</ele>
        <time>2011-06-15T13:03:02Z</time>
      </trkpt>
      <trkpt lat="45.10913" lon="2.6424">
        <ele>1542.0920410156</ele>
        <time>2011-06-15T13:03:19Z</time>
      </trkpt>
      <trkpt lat="45.10916" lon="2.64265">
        <ele>1542.5727539062</ele>
        <time>2011-06-15T13:03:42Z</time>
      </trkpt>
      <trkpt lat="45.10923" lon="2.6428">
        <ele>1544.4951171875</ele>
        <time>2011-06-15T13:04:00Z</time>
      </trkpt>
      <trkpt lat="45.10925" lon="2.64296">
        <ele>1543.5339355469</ele>
        <time>2011-06-15T13:04:16Z</time>
      </trkpt>
      <trkpt lat="45.10914" lon="2.64316">
        <ele>1542.0920410156</ele>
        <time>2011-06-15T13:04:37Z</time>
      </trkpt>
      <trkpt lat="45.10911" lon="2.64323">
        <ele>1542.0920410156</ele>
        <time>2011-06-15T13:04:44Z</time>
      </trkpt>
      <trkpt lat="45.10899" lon="2.64352">
        <ele>1541.611328125</ele>
        <time>2011-06-15T13:05:09Z</time>
      </trkpt>
      <trkpt lat="45.10888" lon="2.64374">
        <ele>1540.6499023438</ele>
        <time>2011-06-15T13:05:27Z</time>
      </trkpt>
      <trkpt lat="45.10879" lon="2.64397">
        <ele>1541.1306152344</ele>
        <time>2011-06-15T13:05:45Z</time>
      </trkpt>
      <trkpt lat="45.10869" lon="2.6442">
        <ele>1541.611328125</ele>
        <time>2011-06-15T13:06:05Z</time>
      </trkpt>
      <trkpt lat="45.1086" lon="2.64444">
        <ele>1542.0920410156</ele>
        <time>2011-06-15T13:06:25Z</time>
      </trkpt>
      <trkpt lat="45.10852" lon="2.64466">
        <ele>1543.0532226562</ele>
        <time>2011-06-15T13:06:45Z</time>
      </trkpt>
      <trkpt lat="45.10846" lon="2.6449">
        <ele>1544.0146484375</ele>
        <time>2011-06-15T13:07:05Z</time>
      </trkpt>
      <trkpt lat="45.10839" lon="2.64512">
        <ele>1545.4565429688</ele>
        <time>2011-06-15T13:07:27Z</time>
      </trkpt>
      <trkpt lat="45.10835" lon="2.64529">
        <ele>1547.8598632812</ele>
        <time>2011-06-15T13:07:48Z</time>
      </trkpt>
      <trkpt lat="45.10834" lon="2.64542">
        <ele>1550.2634277344</ele>
        <time>2011-06-15T13:08:07Z</time>
      </trkpt>
      <trkpt lat="45.10839" lon="2.64553">
        <ele>1551.7053222656</ele>
        <time>2011-06-15T13:08:21Z</time>
      </trkpt>
      <trkpt lat="45.10842" lon="2.64561">
        <ele>1552.6665039062</ele>
        <time>2011-06-15T13:09:05Z</time>
      </trkpt>
      <trkpt lat="45.10843" lon="2.64565">
        <ele>1552.6665039062</ele>
        <time>2011-06-15T13:09:37Z</time>
      </trkpt>
      <trkpt lat="45.10841" lon="2.64576">
        <ele>1553.1472167969</ele>
        <time>2011-06-15T13:09:58Z</time>
      </trkpt>
      <trkpt lat="45.10835" lon="2.64599">
        <ele>1553.1472167969</ele>
        <time>2011-06-15T13:10:18Z</time>
      </trkpt>
      <trkpt lat="45.10827" lon="2.64614">
        <ele>1553.1472167969</ele>
        <time>2011-06-15T13:10:34Z</time>
      </trkpt>
      <trkpt lat="45.10821" lon="2.64625">
        <ele>1553.6279296875</ele>
        <time>2011-06-15T13:10:49Z</time>
      </trkpt>
      <trkpt lat="45.10816" lon="2.64631">
        <ele>1551.7053222656</ele>
        <time>2011-06-15T13:11:04Z</time>
      </trkpt>
      <trkpt lat="45.10805" lon="2.64642">
        <ele>1551.7053222656</ele>
        <time>2011-06-15T13:11:19Z</time>
      </trkpt>
      <trkpt lat="45.108" lon="2.64643">
        <ele>1551.7053222656</ele>
        <time>2011-06-15T13:11:23Z</time>
      </trkpt>
      <trkpt lat="45.10791" lon="2.6465">
        <ele>1550.7438964844</ele>
        <time>2011-06-15T13:11:40Z</time>
      </trkpt>
      <trkpt lat="45.10779" lon="2.64659">
        <ele>1550.7438964844</ele>
        <time>2011-06-15T13:11:53Z</time>
      </trkpt>
      <trkpt lat="45.10772" lon="2.64674">
        <ele>1550.7438964844</ele>
        <time>2011-06-15T13:12:05Z</time>
      </trkpt>
      <trkpt lat="45.10768" lon="2.64677">
        <ele>1551.224609375</ele>
        <time>2011-06-15T13:12:10Z</time>
      </trkpt>
      <trkpt lat="45.1076" lon="2.64697">
        <ele>1552.1857910156</ele>
        <time>2011-06-15T13:12:27Z</time>
      </trkpt>
      <trkpt lat="45.10748" lon="2.64716">
        <ele>1553.6279296875</ele>
        <time>2011-06-15T13:12:46Z</time>
      </trkpt>
      <trkpt lat="45.10743" lon="2.64722">
        <ele>1553.6279296875</ele>
        <time>2011-06-15T13:13:05Z</time>
      </trkpt>
      <trkpt lat="45.10731" lon="2.6474">
        <ele>1555.5505371094</ele>
        <time>2011-06-15T13:13:27Z</time>
      </trkpt>
      <trkpt lat="45.10717" lon="2.64758">
        <ele>1556.9924316406</ele>
        <time>2011-06-15T13:13:54Z</time>
      </trkpt>
      <trkpt lat="45.10711" lon="2.64767">
        <ele>1558.4343261719</ele>
        <time>2011-06-15T13:14:14Z</time>
      </trkpt>
      <trkpt lat="45.10705" lon="2.64778">
        <ele>1559.8762207031</ele>
        <time>2011-06-15T13:15:04Z</time>
      </trkpt>
      <trkpt lat="45.107" lon="2.64788">
        <ele>1561.7990722656</ele>
        <time>2011-06-15T13:15:29Z</time>
      </trkpt>
      <trkpt lat="45.10694" lon="2.64798">
        <ele>1563.2409667969</ele>
        <time>2011-06-15T13:15:52Z</time>
      </trkpt>
      <trkpt lat="45.10687" lon="2.64811">
        <ele>1566.125</ele>
        <time>2011-06-15T13:16:16Z</time>
      </trkpt>
      <trkpt lat="45.10687" lon="2.64813">
        <ele>1566.6057128906</ele>
        <time>2011-06-15T13:16:53Z</time>
      </trkpt>
      <trkpt lat="45.10685" lon="2.64823">
        <ele>1568.0476074219</ele>
        <time>2011-06-15T13:17:07Z</time>
      </trkpt>
      <trkpt lat="45.10683" lon="2.6483">
        <ele>1569.0090332031</ele>
        <time>2011-06-15T13:17:26Z</time>
      </trkpt>
      <trkpt lat="45.1068" lon="2.6484">
        <ele>1570.4509277344</ele>
        <time>2011-06-15T13:17:48Z</time>
      </trkpt>
      <trkpt lat="45.10676" lon="2.64848">
        <ele>1572.3735351562</ele>
        <time>2011-06-15T13:18:05Z</time>
      </trkpt>
      <trkpt lat="45.10673" lon="2.64858">
        <ele>1573.3349609375</ele>
        <time>2011-06-15T13:18:21Z</time>
      </trkpt>
      <trkpt lat="45.10666" lon="2.64872">
        <ele>1575.7380371094</ele>
        <time>2011-06-15T13:18:42Z</time>
      </trkpt>
      <trkpt lat="45.1066" lon="2.64884">
        <ele>1577.1801757812</ele>
        <time>2011-06-15T13:19:01Z</time>
      </trkpt>
      <trkpt lat="45.10657" lon="2.64893">
        <ele>1578.6220703125</ele>
        <time>2011-06-15T13:19:16Z</time>
      </trkpt>
      <trkpt lat="45.10651" lon="2.64905">
        <ele>1580.544921875</ele>
        <time>2011-06-15T13:19:41Z</time>
      </trkpt>
      <trkpt lat="45.10647" lon="2.64915">
        <ele>1581.9868164062</ele>
        <time>2011-06-15T13:19:58Z</time>
      </trkpt>
      <trkpt lat="45.10641" lon="2.64927">
        <ele>1583.4287109375</ele>
        <time>2011-06-15T13:20:17Z</time>
      </trkpt>
      <trkpt lat="45.10637" lon="2.64938">
        <ele>1585.83203125</ele>
        <time>2011-06-15T13:20:38Z</time>
      </trkpt>
      <trkpt lat="45.10633" lon="2.6495">
        <ele>1587.7546386719</ele>
        <time>2011-06-15T13:20:55Z</time>
      </trkpt>
      <trkpt lat="45.1063" lon="2.64954">
        <ele>1588.2353515625</ele>
        <time>2011-06-15T13:21:08Z</time>
      </trkpt>
      <trkpt lat="45.10626" lon="2.64968">
        <ele>1589.6772460938</ele>
        <time>2011-06-15T13:21:25Z</time>
      </trkpt>
      <trkpt lat="45.10619" lon="2.64983">
        <ele>1591.119140625</ele>
        <time>2011-06-15T13:21:43Z</time>
      </trkpt>
      <trkpt lat="45.10607" lon="2.65003">
        <ele>1593.0417480469</ele>
        <time>2011-06-15T13:22:09Z</time>
      </trkpt>
      <trkpt lat="45.10596" lon="2.65018">
        <ele>1593.5224609375</ele>
        <time>2011-06-15T13:22:28Z</time>
      </trkpt>
      <trkpt lat="45.10583" lon="2.65032">
        <ele>1595.4450683594</ele>
        <time>2011-06-15T13:22:50Z</time>
      </trkpt>
      <trkpt lat="45.1057" lon="2.65046">
        <ele>1596.4067382812</ele>
        <time>2011-06-15T13:23:12Z</time>
      </trkpt>
      <trkpt lat="45.10561" lon="2.65054">
        <ele>1597.8486328125</ele>
        <time>2011-06-15T13:23:31Z</time>
      </trkpt>
      <trkpt lat="45.10551" lon="2.65063">
        <ele>1599.2905273438</ele>
        <time>2011-06-15T13:23:51Z</time>
      </trkpt>
      <trkpt lat="45.10541" lon="2.65068">
        <ele>1600.251953125</ele>
        <time>2011-06-15T13:24:08Z</time>
      </trkpt>
      <trkpt lat="45.1053" lon="2.65075">
        <ele>1602.1743164062</ele>
        <time>2011-06-15T13:24:26Z</time>
      </trkpt>
      <trkpt lat="45.1052" lon="2.65085">
        <ele>1601.2131347656</ele>
        <time>2011-06-15T13:24:40Z</time>
      </trkpt>
      <trkpt lat="45.10517" lon="2.65096">
        <ele>1600.251953125</ele>
        <time>2011-06-15T13:24:52Z</time>
      </trkpt>
      <trkpt lat="45.10513" lon="2.65111">
        <ele>1599.7712402344</ele>
        <time>2011-06-15T13:25:06Z</time>
      </trkpt>
      <trkpt lat="45.10501" lon="2.65123">
        <ele>1599.7712402344</ele>
        <time>2011-06-15T13:25:23Z</time>
      </trkpt>
      <trkpt lat="45.10496" lon="2.65131">
        <ele>1597.3679199219</ele>
        <time>2011-06-15T13:25:37Z</time>
      </trkpt>
      <trkpt lat="45.1049" lon="2.65141">
        <ele>1595.92578125</ele>
        <time>2011-06-15T13:25:53Z</time>
      </trkpt>
      <trkpt lat="45.10486" lon="2.65154">
        <ele>1593.0417480469</ele>
        <time>2011-06-15T13:26:11Z</time>
      </trkpt>
      <trkpt lat="45.10481" lon="2.65173">
        <ele>1591.5998535156</ele>
        <time>2011-06-15T13:26:29Z</time>
      </trkpt>
      <trkpt lat="45.10478" lon="2.65188">
        <ele>1590.6384277344</ele>
        <time>2011-06-15T13:26:44Z</time>
      </trkpt>
      <trkpt lat="45.10477" lon="2.65205">
        <ele>1589.1965332031</ele>
        <time>2011-06-15T13:26:58Z</time>
      </trkpt>
      <trkpt lat="45.10478" lon="2.65225">
        <ele>1588.7160644531</ele>
        <time>2011-06-15T13:27:14Z</time>
      </trkpt>
      <trkpt lat="45.10475" lon="2.65248">
        <ele>1587.2739257812</ele>
        <time>2011-06-15T13:27:32Z</time>
      </trkpt>
      <trkpt lat="45.10474" lon="2.65264">
        <ele>1586.3127441406</ele>
        <time>2011-06-15T13:27:44Z</time>
      </trkpt>
      <trkpt lat="45.10474" lon="2.65283">
        <ele>1585.83203125</ele>
        <time>2011-06-15T13:27:59Z</time>
      </trkpt>
      <trkpt lat="45.10474" lon="2.65304">
        <ele>1584.3901367188</ele>
        <time>2011-06-15T13:28:13Z</time>
      </trkpt>
      <trkpt lat="45.10474" lon="2.65322">
        <ele>1583.9094238281</ele>
        <time>2011-06-15T13:28:30Z</time>
      </trkpt>
      <trkpt lat="45.10472" lon="2.65338">
        <ele>1582.4675292969</ele>
        <time>2011-06-15T13:28:45Z</time>
      </trkpt>
      <trkpt lat="45.10468" lon="2.65353">
        <ele>1581.0256347656</ele>
        <time>2011-06-15T13:28:59Z</time>
      </trkpt>
      <trkpt lat="45.10469" lon="2.65368">
        <ele>1581.0256347656</ele>
        <time>2011-06-15T13:29:14Z</time>
      </trkpt>
      <trkpt lat="45.10471" lon="2.65387">
        <ele>1582.4675292969</ele>
        <time>2011-06-15T13:29:33Z</time>
      </trkpt>
      <trkpt lat="45.10469" lon="2.65411">
        <ele>1583.4287109375</ele>
        <time>2011-06-15T13:29:52Z</time>
      </trkpt>
      <trkpt lat="45.10474" lon="2.65416">
        <ele>1582.9479980469</ele>
        <time>2011-06-15T13:30:06Z</time>
      </trkpt>
      <trkpt lat="45.10478" lon="2.65418">
        <ele>1581.9868164062</ele>
        <time>2011-06-15T13:30:12Z</time>
      </trkpt>
      <trkpt lat="45.10487" lon="2.6543">
        <ele>1581.9868164062</ele>
        <time>2011-06-15T13:30:28Z</time>
      </trkpt>
      <trkpt lat="45.10493" lon="2.65435">
        <ele>1580.544921875</ele>
        <time>2011-06-15T13:30:47Z</time>
      </trkpt>
      <trkpt lat="45.105" lon="2.65447">
        <ele>1580.544921875</ele>
        <time>2011-06-15T13:31:08Z</time>
      </trkpt>
      <trkpt lat="45.10504" lon="2.65452">
        <ele>1579.5832519531</ele>
        <time>2011-06-15T13:31:14Z</time>
      </trkpt>
      <trkpt lat="45.10508" lon="2.65459">
        <ele>1579.5832519531</ele>
        <time>2011-06-15T13:31:21Z</time>
      </trkpt>
      <trkpt lat="45.10513" lon="2.6547">
        <ele>1579.5832519531</ele>
        <time>2011-06-15T13:31:36Z</time>
      </trkpt>
      <trkpt lat="45.10518" lon="2.65476">
        <ele>1579.1025390625</ele>
        <time>2011-06-15T13:31:53Z</time>
      </trkpt>
      <trkpt lat="45.10517" lon="2.65485">
        <ele>1580.0642089844</ele>
        <time>2011-06-15T13:32:06Z</time>
      </trkpt>
      <trkpt lat="45.10514" lon="2.65499">
        <ele>1582.4675292969</ele>
        <time>2011-06-15T13:32:27Z</time>
      </trkpt>
      <trkpt lat="45.10517" lon="2.65504">
        <ele>1583.4287109375</ele>
        <time>2011-06-15T13:32:40Z</time>
      </trkpt>
      <trkpt lat="45.10519" lon="2.65505">
        <ele>1583.4287109375</ele>
        <time>2011-06-15T13:32:55Z</time>
      </trkpt>
      <trkpt lat="45.10519" lon="2.65504">
        <ele>1583.4287109375</ele>
        <time>2011-06-15T13:33:13Z</time>
      </trkpt>
      <trkpt lat="45.1052" lon="2.65507">
        <ele>1583.9094238281</ele>
        <time>2011-06-15T13:33:26Z</time>
      </trkpt>
      <trkpt lat="45.10526" lon="2.65519">
        <ele>1582.9479980469</ele>
        <time>2011-06-15T13:33:44Z</time>
      </trkpt>
      <trkpt lat="45.10537" lon="2.65535">
        <ele>1583.9094238281</ele>
        <time>2011-06-15T13:34:03Z</time>
      </trkpt>
      <trkpt lat="45.10557" lon="2.65552">
        <ele>1581.5061035156</ele>
        <time>2011-06-15T13:34:36Z</time>
      </trkpt>
      <trkpt lat="45.10567" lon="2.6557">
        <ele>1580.544921875</ele>
        <time>2011-06-15T13:34:54Z</time>
      </trkpt>
      <trkpt lat="45.10575" lon="2.65578">
        <ele>1581.5061035156</ele>
        <time>2011-06-15T13:35:15Z</time>
      </trkpt>
      <trkpt lat="45.1058" lon="2.65588">
        <ele>1582.4675292969</ele>
        <time>2011-06-15T13:35:38Z</time>
      </trkpt>
      <trkpt lat="45.10586" lon="2.656">
        <ele>1583.9094238281</ele>
        <time>2011-06-15T13:35:53Z</time>
      </trkpt>
      <trkpt lat="45.10589" lon="2.65616">
        <ele>1585.3513183594</ele>
        <time>2011-06-15T13:36:08Z</time>
      </trkpt>
      <trkpt lat="45.10591" lon="2.65632">
        <ele>1587.2739257812</ele>
        <time>2011-06-15T13:36:26Z</time>
      </trkpt>
      <trkpt lat="45.10596" lon="2.65654">
        <ele>1588.7160644531</ele>
        <time>2011-06-15T13:36:49Z</time>
      </trkpt>
      <trkpt lat="45.10597" lon="2.65661">
        <ele>1589.1965332031</ele>
        <time>2011-06-15T13:37:05Z</time>
      </trkpt>
      <trkpt lat="45.10602" lon="2.6567">
        <ele>1589.1965332031</ele>
        <time>2011-06-15T13:38:00Z</time>
      </trkpt>
      <trkpt lat="45.10604" lon="2.65677">
        <ele>1589.6772460938</ele>
        <time>2011-06-15T13:38:21Z</time>
      </trkpt>
      <trkpt lat="45.10614" lon="2.65692">
        <ele>1590.6384277344</ele>
        <time>2011-06-15T13:38:39Z</time>
      </trkpt>
      <trkpt lat="45.10621" lon="2.65712">
        <ele>1590.1579589844</ele>
        <time>2011-06-15T13:38:56Z</time>
      </trkpt>
      <trkpt lat="45.10621" lon="2.65729">
        <ele>1590.6384277344</ele>
        <time>2011-06-15T13:39:10Z</time>
      </trkpt>
      <trkpt lat="45.10616" lon="2.65749">
        <ele>1588.2353515625</ele>
        <time>2011-06-15T13:39:30Z</time>
      </trkpt>
      <trkpt lat="45.10613" lon="2.65767">
        <ele>1586.7932128906</ele>
        <time>2011-06-15T13:39:45Z</time>
      </trkpt>
      <trkpt lat="45.10608" lon="2.65787">
        <ele>1586.7932128906</ele>
        <time>2011-06-15T13:40:04Z</time>
      </trkpt>
      <trkpt lat="45.10605" lon="2.65803">
        <ele>1586.3127441406</ele>
        <time>2011-06-15T13:40:20Z</time>
      </trkpt>
      <trkpt lat="45.10602" lon="2.65819">
        <ele>1585.83203125</ele>
        <time>2011-06-15T13:40:38Z</time>
      </trkpt>
      <trkpt lat="45.10597" lon="2.65834">
        <ele>1583.9094238281</ele>
        <time>2011-06-15T13:40:55Z</time>
      </trkpt>
      <trkpt lat="45.10596" lon="2.65852">
        <ele>1583.4287109375</ele>
        <time>2011-06-15T13:41:13Z</time>
      </trkpt>
      <trkpt lat="45.10597" lon="2.65866">
        <ele>1583.4287109375</ele>
        <time>2011-06-15T13:41:29Z</time>
      </trkpt>
      <trkpt lat="45.10599" lon="2.65876">
        <ele>1581.5061035156</ele>
        <time>2011-06-15T13:41:49Z</time>
      </trkpt>
      <trkpt lat="45.10596" lon="2.65878">
        <ele>1580.544921875</ele>
        <time>2011-06-15T13:42:10Z</time>
      </trkpt>
      <trkpt lat="45.1059" lon="2.65879">
        <ele>1578.6220703125</ele>
        <time>2011-06-15T13:42:26Z</time>
      </trkpt>
      <trkpt lat="45.1059" lon="2.65883">
        <ele>1577.6606445312</ele>
        <time>2011-06-15T13:42:41Z</time>
      </trkpt>
      <trkpt lat="45.10585" lon="2.65886">
        <ele>1575.7380371094</ele>
        <time>2011-06-15T13:42:54Z</time>
      </trkpt>
      <trkpt lat="45.10584" lon="2.65889">
        <ele>1573.8154296875</ele>
        <time>2011-06-15T13:43:11Z</time>
      </trkpt>
      <trkpt lat="45.10583" lon="2.65897">
        <ele>1571.8928222656</ele>
        <time>2011-06-15T13:43:37Z</time>
      </trkpt>
      <trkpt lat="45.10572" lon="2.65903">
        <ele>1568.5283203125</ele>
        <time>2011-06-15T13:43:56Z</time>
      </trkpt>
      <trkpt lat="45.10566" lon="2.6591">
        <ele>1566.6057128906</ele>
        <time>2011-06-15T13:44:17Z</time>
      </trkpt>
      <trkpt lat="45.10559" lon="2.65919">
        <ele>1565.1638183594</ele>
        <time>2011-06-15T13:44:39Z</time>
      </trkpt>
      <trkpt lat="45.10554" lon="2.65923">
        <ele>1561.7990722656</ele>
        <time>2011-06-15T13:44:52Z</time>
      </trkpt>
      <trkpt lat="45.10554" lon="2.65923">
        <ele>1561.7990722656</ele>
        <time>2011-06-15T13:44:53Z</time>
      </trkpt>
      <trkpt lat="45.10546" lon="2.65932">
        <ele>1558.9150390625</ele>
        <time>2011-06-15T13:45:15Z</time>
      </trkpt>
      <trkpt lat="45.10539" lon="2.65942">
        <ele>1556.51171875</ele>
        <time>2011-06-15T13:45:35Z</time>
      </trkpt>
      <trkpt lat="45.10535" lon="2.65952">
        <ele>1553.1472167969</ele>
        <time>2011-06-15T13:45:59Z</time>
      </trkpt>
      <trkpt lat="45.10527" lon="2.65965">
        <ele>1549.7827148438</ele>
        <time>2011-06-15T13:46:19Z</time>
      </trkpt>
      <trkpt lat="45.10518" lon="2.65976">
        <ele>1547.8598632812</ele>
        <time>2011-06-15T13:46:42Z</time>
      </trkpt>
      <trkpt lat="45.1051" lon="2.65992">
        <ele>1544.9758300781</ele>
        <time>2011-06-15T13:47:13Z</time>
      </trkpt>
      <trkpt lat="45.10505" lon="2.66001">
        <ele>1541.611328125</ele>
        <time>2011-06-15T13:47:38Z</time>
      </trkpt>
      <trkpt lat="45.10495" lon="2.66019">
        <ele>1539.2080078125</ele>
        <time>2011-06-15T13:48:02Z</time>
      </trkpt>
      <trkpt lat="45.10494" lon="2.66023">
        <ele>1539.2080078125</ele>
        <time>2011-06-15T13:48:11Z</time>
      </trkpt>
      <trkpt lat="45.10489" lon="2.66036">
        <ele>1538.2468261719</ele>
        <time>2011-06-15T13:48:30Z</time>
      </trkpt>
    </trkseg>
  </trk>
</gpx>